Time,TemperatureF,DewpointF,PressureIn,WindDirection,WindDirectionDegrees,WindSpeedMPH,WindSpeedGustMPH,Humidity,HourlyPrecipIn,Conditions,Clouds,dailyrainin,SoftwareType,DateUTC
2013-11-23 00:00:00,52.9,51.4,29.92,SW,236,3.0,9.0,95,0.00,,,0.01,meteohub,2013-11-23 05:00:00,
2013-11-23 00:01:00,52.9,51.4,29.92,WSW,250,4.0,9.0,95,0.00,,,0.01,meteohub,2013-11-23 05:01:00,
2013-11-23 00:02:00,52.9,51.4,29.92,SW,226,5.0,9.0,95,0.00,,,0.01,meteohub,2013-11-23 05:02:00,
2013-11-23 00:06:00,52.5,51.1,29.92,WNW,288,5.0,10.0,95,0.00,,,0.00,meteohub,2013-11-23 05:06:00,
2013-11-23 00:07:00,52.5,51.1,29.92,WSW,244,5.0,10.0,95,0.00,,,0.00,meteohub,2013-11-23 05:07:00,
2013-11-23 00:11:00,52.3,50.9,29.92,SW,232,4.0,10.0,95,0.00,,,0.00,meteohub,2013-11-23 05:11:00,
2013-11-23 00:12:00,52.3,50.9,29.92,West,270,3.0,10.0,95,0.00,,,0.00,meteohub,2013-11-23 05:12:00,
2013-11-23 00:17:00,52.3,50.9,29.92,WSW,237,0.0,10.0,95,0.00,,,0.00,meteohub,2013-11-23 05:17:00,
2013-11-23 00:18:00,52.3,50.9,29.92,WNW,284,2.0,10.0,95,0.00,,,0.00,meteohub,2013-11-23 05:18:00,
2013-11-23 00:22:00,51.8,50.4,29.92,West,280,4.0,9.0,95,0.00,,,0.00,meteohub,2013-11-23 05:22:00,
2013-11-23 00:23:00,51.8,50.4,29.92,WSW,255,2.0,9.0,95,0.00,,,0.00,meteohub,2013-11-23 05:23:00,
2013-11-23 00:24:00,51.6,50.2,29.92,WNW,283,2.0,9.0,95,0.00,,,0.00,meteohub,2013-11-23 05:24:00,
2013-11-23 00:27:00,51.6,50.2,29.92,West,277,3.0,8.0,95,0.00,,,0.00,meteohub,2013-11-23 05:27:00,
2013-11-23 00:28:00,51.6,50.2,29.92,WSW,251,5.0,8.0,95,0.00,,,0.00,meteohub,2013-11-23 05:28:00,
2013-11-23 00:29:00,52.0,50.9,29.92,WNW,290,5.0,8.0,96,0.00,,,0.00,meteohub,2013-11-23 05:29:00,
2013-11-23 00:30:00,52.2,51.1,29.92,WNW,298,3.0,8.0,96,0.00,,,0.00,meteohub,2013-11-23 05:30:00,
2013-11-23 00:32:00,52.3,51.3,29.92,West,277,6.0,8.0,96,0.00,,,0.00,meteohub,2013-11-23 05:32:00,
2013-11-23 00:33:00,52.5,51.4,29.92,NW,313,6.0,8.0,96,0.00,,,0.00,meteohub,2013-11-23 05:33:00,
2013-11-23 00:34:00,52.5,51.4,29.92,WNW,294,7.0,8.0,96,0.00,,,0.00,meteohub,2013-11-23 05:34:00,
2013-11-23 00:35:00,52.7,51.6,29.92,West,259,6.0,9.0,96,0.00,,,0.00,meteohub,2013-11-23 05:35:00,
2013-11-23 00:36:00,52.7,51.6,29.92,WSW,240,6.0,9.0,96,0.00,,,0.00,meteohub,2013-11-23 05:36:00,
2013-11-23 00:37:00,52.9,51.8,29.92,WNW,288,7.0,9.0,96,0.00,,,0.00,meteohub,2013-11-23 05:37:00,
2013-11-23 00:39:00,52.9,51.8,29.92,WNW,300,8.0,9.0,96,0.00,,,0.00,meteohub,2013-11-23 05:39:00,
2013-11-23 00:40:00,52.9,51.8,29.92,WNW,286,7.0,9.0,96,0.00,,,0.00,meteohub,2013-11-23 05:40:00,
2013-11-23 00:41:00,52.9,51.8,29.92,WSW,251,5.0,11.0,96,0.00,,,0.00,meteohub,2013-11-23 05:41:00,
2013-11-23 00:42:00,52.9,51.8,29.92,West,279,4.0,11.0,96,0.00,,,0.00,meteohub,2013-11-23 05:42:00,
2013-11-23 00:44:00,52.9,51.4,29.92,WSW,257,3.0,11.0,95,0.00,,,0.00,meteohub,2013-11-23 05:44:00,
2013-11-23 00:45:00,52.9,51.4,29.92,WNW,286,4.0,11.0,95,0.00,,,0.00,meteohub,2013-11-23 05:45:00,
2013-11-23 00:46:00,52.9,51.4,29.92,West,269,3.0,11.0,95,0.00,,,0.00,meteohub,2013-11-23 05:46:00,
2013-11-23 00:47:00,52.9,51.4,29.92,West,271,3.0,11.0,95,0.00,,,0.00,meteohub,2013-11-23 05:47:00,
2013-11-23 00:50:00,52.9,51.4,29.92,WNW,293,4.0,11.0,95,0.00,,,0.00,meteohub,2013-11-23 05:50:00,
2013-11-23 00:51:00,52.9,51.4,29.92,West,266,8.0,11.0,95,0.00,,,0.00,meteohub,2013-11-23 05:51:00,
2013-11-23 00:52:00,52.9,51.4,29.92,West,262,8.0,11.0,95,0.00,,,0.00,meteohub,2013-11-23 05:52:00,
2013-11-23 00:53:00,52.9,51.4,29.93,WNW,294,8.0,11.0,95,0.00,,,0.00,meteohub,2013-11-23 05:53:00,
2013-11-23 00:55:00,52.9,51.4,29.93,WNW,288,9.0,12.0,95,0.00,,,0.00,meteohub,2013-11-23 05:55:00,
2013-11-23 00:56:00,52.9,51.4,29.93,WNW,301,8.0,12.0,95,0.00,,,0.00,meteohub,2013-11-23 05:56:00,
2013-11-23 00:57:00,52.9,51.4,29.93,WNW,291,7.0,12.0,95,0.00,,,0.00,meteohub,2013-11-23 05:57:00,
2013-11-23 00:58:00,52.9,51.4,29.93,NW,315,10.0,12.0,95,0.00,,,0.00,meteohub,2013-11-23 05:58:00,
2013-11-23 01:00:00,52.7,51.3,29.93,West,270,4.0,12.0,95,0.00,,,0.00,meteohub,2013-11-23 06:00:00,
2013-11-23 01:01:00,52.7,51.3,29.93,West,279,4.0,12.0,95,0.00,,,0.00,meteohub,2013-11-23 06:01:00,
2013-11-23 01:02:00,52.7,51.3,29.92,West,266,3.0,12.0,95,0.00,,,0.00,meteohub,2013-11-23 06:02:00,
2013-11-23 01:03:00,52.5,51.1,29.92,NW,304,5.0,12.0,95,0.00,,,0.00,meteohub,2013-11-23 06:03:00,
2013-11-23 01:06:00,52.5,51.1,29.92,WNW,289,5.0,12.0,95,0.00,,,0.00,meteohub,2013-11-23 06:06:00,
2013-11-23 01:07:00,52.5,51.1,29.92,WNW,299,7.0,12.0,95,0.00,,,0.00,meteohub,2013-11-23 06:07:00,
2013-11-23 01:08:00,52.5,51.1,29.92,NW,307,7.0,12.0,95,0.00,,,0.00,meteohub,2013-11-23 06:08:00,
2013-11-23 01:09:00,52.5,51.1,29.93,WNW,298,8.0,12.0,95,0.00,,,0.00,meteohub,2013-11-23 06:09:00,
2013-11-23 01:11:00,52.5,51.1,29.92,WNW,286,6.0,12.0,95,0.00,,,0.00,meteohub,2013-11-23 06:11:00,
2013-11-23 01:12:00,52.5,51.1,29.92,WNW,289,3.0,12.0,95,0.00,,,0.00,meteohub,2013-11-23 06:12:00,
2013-11-23 01:13:00,52.5,51.1,29.92,WNW,298,2.0,12.0,95,0.00,,,0.00,meteohub,2013-11-23 06:13:00,
2013-11-23 01:14:00,52.5,51.1,29.92,WNW,298,3.0,12.0,95,0.00,,,0.00,meteohub,2013-11-23 06:14:00,
2013-11-23 01:16:00,52.5,51.1,29.93,West,281,2.0,12.0,95,0.00,,,0.00,meteohub,2013-11-23 06:16:00,
2013-11-23 01:17:00,52.5,51.1,29.93,NW,305,8.0,12.0,95,0.00,,,0.00,meteohub,2013-11-23 06:17:00,
2013-11-23 01:18:00,52.3,50.9,29.93,NW,312,6.0,12.0,95,0.00,,,0.00,meteohub,2013-11-23 06:18:00,
2013-11-23 01:19:00,52.3,50.9,29.93,WNW,294,5.0,12.0,95,0.00,,,0.00,meteohub,2013-11-23 06:19:00,
2013-11-23 01:22:00,52.3,50.9,29.93,West,277,8.0,11.0,95,0.00,,,0.00,meteohub,2013-11-23 06:22:00,
2013-11-23 01:23:00,52.3,50.9,29.93,West,276,8.0,11.0,95,0.00,,,0.00,meteohub,2013-11-23 06:23:00,
2013-11-23 01:24:00,52.3,50.9,29.93,WNW,300,3.0,11.0,95,0.00,,,0.00,meteohub,2013-11-23 06:24:00,
2013-11-23 01:25:00,52.3,50.7,29.92,WNW,283,4.0,11.0,94,0.00,,,0.00,meteohub,2013-11-23 06:25:00,
2013-11-23 01:28:00,52.3,50.7,29.93,WNW,294,8.0,11.0,94,0.00,,,0.00,meteohub,2013-11-23 06:28:00,
2013-11-23 01:29:00,52.3,50.7,29.93,WNW,290,3.0,11.0,94,0.00,,,0.00,meteohub,2013-11-23 06:29:00,
2013-11-23 01:30:00,52.3,50.7,29.93,West,264,2.0,11.0,94,0.00,,,0.00,meteohub,2013-11-23 06:30:00,
2013-11-23 01:31:00,52.2,50.5,29.93,West,278,6.0,13.0,94,0.00,,,0.00,meteohub,2013-11-23 06:31:00,
2013-11-23 01:34:00,52.2,50.5,29.93,NW,309,7.0,13.0,94,0.00,,,0.00,meteohub,2013-11-23 06:34:00,
2013-11-23 01:35:00,52.2,50.5,29.93,WNW,298,3.0,13.0,94,0.00,,,0.00,meteohub,2013-11-23 06:35:00,
2013-11-23 01:36:00,52.2,50.5,29.93,West,278,7.0,13.0,94,0.00,,,0.00,meteohub,2013-11-23 06:36:00,
2013-11-23 01:39:00,52.0,50.4,29.93,WNW,299,3.0,13.0,94,0.00,,,0.00,meteohub,2013-11-23 06:39:00,
2013-11-23 01:40:00,52.0,50.4,29.94,West,278,8.0,13.0,94,0.00,,,0.00,meteohub,2013-11-23 06:40:00,
2013-11-23 01:41:00,52.0,50.4,29.94,WNW,284,6.0,13.0,94,0.00,,,0.00,meteohub,2013-11-23 06:41:00,
2013-11-23 01:45:00,52.0,50.4,29.94,NW,306,3.0,13.0,94,0.00,,,0.00,meteohub,2013-11-23 06:45:00,
2013-11-23 01:46:00,51.8,50.2,29.94,West,280,7.0,15.0,94,0.00,,,0.00,meteohub,2013-11-23 06:46:00,
2013-11-23 01:47:00,51.8,50.2,29.94,West,266,4.0,15.0,94,0.00,,,0.00,meteohub,2013-11-23 06:47:00,
2013-11-23 01:50:00,51.6,50.0,29.94,WNW,300,9.0,15.0,94,0.00,,,0.00,meteohub,2013-11-23 06:50:00,
2013-11-23 01:52:00,51.6,50.0,29.93,NW,321,5.0,15.0,94,0.00,,,0.00,meteohub,2013-11-23 06:52:00,
2013-11-23 01:56:00,51.6,50.0,29.94,WNW,293,3.0,11.0,94,0.00,,,0.00,meteohub,2013-11-23 06:56:00,
2013-11-23 01:57:00,51.6,49.6,29.94,NW,310,7.0,11.0,93,0.00,,,0.00,meteohub,2013-11-23 06:57:00,
2013-11-23 01:58:00,51.6,49.6,29.94,NW,304,4.0,11.0,93,0.00,,,0.00,meteohub,2013-11-23 06:58:00,
2013-11-23 02:01:00,51.4,49.5,29.94,WNW,298,8.0,12.0,93,0.00,,,0.00,meteohub,2013-11-23 07:01:00,
2013-11-23 02:02:00,51.4,49.5,29.94,WNW,291,0.0,12.0,93,0.00,,,0.00,meteohub,2013-11-23 07:02:00,
2013-11-23 02:03:00,51.4,49.5,29.94,NW,304,5.0,12.0,93,0.00,,,0.00,meteohub,2013-11-23 07:03:00,
2013-11-23 02:04:00,51.4,49.5,29.94,WNW,290,9.0,12.0,93,0.00,,,0.00,meteohub,2013-11-23 07:04:00,
2013-11-23 02:05:00,51.4,49.5,29.94,WNW,300,4.0,12.0,93,0.00,,,0.00,meteohub,2013-11-23 07:05:00,
2013-11-23 02:06:00,51.4,49.5,29.94,WNW,287,3.0,12.0,93,0.00,,,0.00,meteohub,2013-11-23 07:06:00,
2013-11-23 02:07:00,51.4,49.5,29.94,WNW,302,5.0,12.0,93,0.00,,,0.00,meteohub,2013-11-23 07:07:00,
2013-11-23 02:08:00,51.4,49.5,29.94,NW,311,2.0,12.0,93,0.00,,,0.00,meteohub,2013-11-23 07:08:00,
2013-11-23 02:09:00,51.4,49.5,29.94,NW,308,5.0,12.0,93,0.00,,,0.00,meteohub,2013-11-23 07:09:00,
2013-11-23 02:11:00,51.3,49.3,29.94,NW,304,7.0,12.0,93,0.00,,,0.00,meteohub,2013-11-23 07:11:00,
2013-11-23 02:12:00,51.3,49.3,29.94,West,275,3.0,12.0,93,0.00,,,0.00,meteohub,2013-11-23 07:12:00,
2013-11-23 02:13:00,51.3,49.3,29.94,WNW,290,4.0,12.0,93,0.00,,,0.00,meteohub,2013-11-23 07:13:00,
2013-11-23 02:14:00,51.3,49.3,29.94,WNW,284,4.0,12.0,93,0.00,,,0.00,meteohub,2013-11-23 07:14:00,
2013-11-23 02:16:00,51.3,49.3,29.94,WSW,250,7.0,10.0,93,0.00,,,0.00,meteohub,2013-11-23 07:16:00,
2013-11-23 02:17:00,51.3,49.3,29.94,West,272,6.0,10.0,93,0.00,,,0.00,meteohub,2013-11-23 07:17:00,
2013-11-23 02:19:00,51.3,49.3,29.94,West,277,7.0,10.0,93,0.00,,,0.00,meteohub,2013-11-23 07:19:00,
2013-11-23 02:20:00,51.1,49.1,29.94,WNW,301,5.0,10.0,93,0.00,,,0.00,meteohub,2013-11-23 07:20:00,
2013-11-23 02:21:00,51.1,48.9,29.94,WNW,290,3.0,10.0,92,0.00,,,0.00,meteohub,2013-11-23 07:21:00,
2013-11-23 02:22:00,51.1,48.9,29.94,WNW,288,10.0,10.0,92,0.00,,,0.00,meteohub,2013-11-23 07:22:00,
2013-11-23 02:24:00,51.1,48.9,29.94,West,278,4.0,10.0,92,0.00,,,0.00,meteohub,2013-11-23 07:24:00,
2013-11-23 02:25:00,51.1,48.9,29.94,WNW,300,7.0,10.0,92,0.00,,,0.00,meteohub,2013-11-23 07:25:00,
2013-11-23 02:26:00,51.1,48.9,29.94,NW,311,6.0,13.0,92,0.00,,,0.00,meteohub,2013-11-23 07:26:00,
2013-11-23 02:27:00,51.1,48.9,29.94,WNW,292,3.0,13.0,92,0.00,,,0.00,meteohub,2013-11-23 07:27:00,
2013-11-23 02:30:00,50.9,48.7,29.94,West,281,3.0,13.0,92,0.00,,,0.00,meteohub,2013-11-23 07:30:00,
2013-11-23 02:31:00,50.9,48.7,29.94,WNW,282,4.0,13.0,92,0.00,,,0.00,meteohub,2013-11-23 07:31:00,
2013-11-23 02:32:00,50.9,48.7,29.94,WNW,294,4.0,13.0,92,0.00,,,0.00,meteohub,2013-11-23 07:32:00,
2013-11-23 02:35:00,50.7,48.6,29.94,West,279,7.0,13.0,92,0.00,,,0.00,meteohub,2013-11-23 07:35:00,
2013-11-23 02:37:00,50.7,48.6,29.94,WNW,284,3.0,11.0,92,0.00,,,0.00,meteohub,2013-11-23 07:37:00,
2013-11-23 02:38:00,50.7,48.6,29.94,WNW,295,7.0,11.0,92,0.00,,,0.00,meteohub,2013-11-23 07:38:00,
2013-11-23 02:40:00,50.7,48.2,29.94,WNW,296,5.0,11.0,91,0.00,,,0.00,meteohub,2013-11-23 07:40:00,
2013-11-23 02:41:00,50.5,48.0,29.94,NW,306,9.0,11.0,91,0.00,,,0.00,meteohub,2013-11-23 07:41:00,
2013-11-23 02:42:00,50.5,48.0,29.94,WNW,299,3.0,11.0,91,0.00,,,0.00,meteohub,2013-11-23 07:42:00,
2013-11-23 02:43:00,50.5,48.0,29.94,WNW,284,8.0,11.0,91,0.00,,,0.00,meteohub,2013-11-23 07:43:00,
2013-11-23 02:45:00,50.5,48.0,29.94,WNW,286,1.0,11.0,91,0.00,,,0.00,meteohub,2013-11-23 07:45:00,
2013-11-23 02:47:00,50.5,48.0,29.94,WNW,291,4.0,11.0,91,0.00,,,0.00,meteohub,2013-11-23 07:47:00,
2013-11-23 02:48:00,50.4,47.8,29.94,West,280,4.0,11.0,91,0.00,,,0.00,meteohub,2013-11-23 07:48:00,
2013-11-23 02:49:00,50.4,47.8,29.94,West,267,6.0,11.0,91,0.00,,,0.00,meteohub,2013-11-23 07:49:00,
2013-11-23 02:51:00,50.4,47.8,29.94,WNW,284,6.0,11.0,91,0.00,,,0.00,meteohub,2013-11-23 07:51:00,
2013-11-23 02:52:00,50.4,47.8,29.94,WNW,288,4.0,11.0,91,0.00,,,0.00,meteohub,2013-11-23 07:52:00,
2013-11-23 02:53:00,50.4,47.8,29.94,WNW,286,4.0,11.0,91,0.00,,,0.00,meteohub,2013-11-23 07:53:00,
2013-11-23 02:54:00,50.4,47.8,29.94,WNW,294,4.0,11.0,91,0.00,,,0.00,meteohub,2013-11-23 07:54:00,
2013-11-23 02:55:00,50.4,47.8,29.94,WNW,291,8.0,11.0,91,0.00,,,0.00,meteohub,2013-11-23 07:55:00,
2013-11-23 02:57:00,50.2,47.7,29.94,West,281,3.0,10.0,91,0.00,,,0.00,meteohub,2013-11-23 07:57:00,
2013-11-23 02:58:00,50.2,47.7,29.94,WNW,294,2.0,10.0,91,0.00,,,0.00,meteohub,2013-11-23 07:58:00,
2013-11-23 03:00:00,50.2,47.7,29.94,WNW,299,3.0,10.0,91,0.00,,,0.00,meteohub,2013-11-23 08:00:00,
2013-11-23 03:01:00,50.2,47.7,29.94,WNW,285,6.0,10.0,91,0.00,,,0.00,meteohub,2013-11-23 08:01:00,
2013-11-23 03:02:00,50.2,47.7,29.94,WNW,288,5.0,10.0,91,0.00,,,0.00,meteohub,2013-11-23 08:02:00,
2013-11-23 03:03:00,50.2,47.7,29.94,WNW,292,3.0,10.0,91,0.00,,,0.00,meteohub,2013-11-23 08:03:00,
2013-11-23 03:06:00,50.2,47.7,29.94,West,275,7.0,11.0,91,0.00,,,0.00,meteohub,2013-11-23 08:06:00,
2013-11-23 03:07:00,50.0,47.5,29.94,WNW,302,2.0,11.0,91,0.00,,,0.00,meteohub,2013-11-23 08:07:00,
2013-11-23 03:09:00,50.0,47.5,29.94,WNW,299,1.0,11.0,91,0.00,,,0.00,meteohub,2013-11-23 08:09:00,
2013-11-23 03:11:00,49.8,47.3,29.94,West,275,3.0,11.0,91,0.00,,,0.00,meteohub,2013-11-23 08:11:00,
2013-11-23 03:12:00,49.8,47.3,29.94,WNW,285,2.0,11.0,91,0.00,,,0.00,meteohub,2013-11-23 08:12:00,
2013-11-23 03:14:00,49.8,47.3,29.94,West,279,3.0,11.0,91,0.00,,,0.00,meteohub,2013-11-23 08:14:00,
2013-11-23 03:17:00,49.6,47.1,29.94,WNW,293,3.0,11.0,91,0.00,,,0.00,meteohub,2013-11-23 08:17:00,
2013-11-23 03:18:00,49.6,47.1,29.94,WNW,292,2.0,11.0,91,0.00,,,0.00,meteohub,2013-11-23 08:18:00,
2013-11-23 03:19:00,49.6,46.8,29.94,WNW,300,5.0,11.0,90,0.00,,,0.00,meteohub,2013-11-23 08:19:00,
2013-11-23 03:21:00,49.6,46.8,29.94,NW,307,5.0,8.0,90,0.00,,,0.00,meteohub,2013-11-23 08:21:00,
2013-11-23 03:22:00,49.6,46.8,29.94,West,275,1.0,8.0,90,0.00,,,0.00,meteohub,2013-11-23 08:22:00,
2013-11-23 03:23:00,49.6,46.8,29.94,West,275,1.0,8.0,90,0.00,,,0.00,meteohub,2013-11-23 08:23:00,
2013-11-23 03:24:00,49.5,46.6,29.94,WNW,296,3.0,8.0,90,0.00,,,0.00,meteohub,2013-11-23 08:24:00,
2013-11-23 03:25:00,49.5,46.9,29.94,WNW,301,2.0,8.0,91,0.00,,,0.00,meteohub,2013-11-23 08:25:00,
2013-11-23 03:26:00,49.5,46.9,29.94,West,264,6.0,8.0,91,0.00,,,0.00,meteohub,2013-11-23 08:26:00,
2013-11-23 03:27:00,49.5,46.9,29.94,WNW,288,7.0,8.0,91,0.00,,,0.00,meteohub,2013-11-23 08:27:00,
2013-11-23 03:28:00,49.5,46.9,29.94,WNW,294,4.0,8.0,91,0.00,,,0.00,meteohub,2013-11-23 08:28:00,
2013-11-23 03:29:00,49.5,46.6,29.94,West,271,4.0,8.0,90,0.00,,,0.00,meteohub,2013-11-23 08:29:00,
2013-11-23 03:31:00,49.5,46.9,29.94,WNW,294,9.0,9.0,91,0.00,,,0.00,meteohub,2013-11-23 08:31:00,
2013-11-23 03:32:00,49.3,46.8,29.94,WNW,288,3.0,9.0,91,0.00,,,0.00,meteohub,2013-11-23 08:32:00,
2013-11-23 03:33:00,49.3,46.8,29.94,WNW,294,7.0,9.0,91,0.00,,,0.00,meteohub,2013-11-23 08:33:00,
2013-11-23 03:34:00,49.3,46.4,29.94,WNW,287,2.0,9.0,90,0.00,,,0.00,meteohub,2013-11-23 08:34:00,
2013-11-23 03:37:00,49.3,46.4,29.94,WNW,303,4.0,10.0,90,0.00,,,0.00,meteohub,2013-11-23 08:37:00,
2013-11-23 03:38:00,49.1,46.2,29.94,West,273,7.0,10.0,90,0.00,,,0.00,meteohub,2013-11-23 08:38:00,
2013-11-23 03:39:00,49.1,46.2,29.94,WNW,297,3.0,10.0,90,0.00,,,0.00,meteohub,2013-11-23 08:39:00,
2013-11-23 03:42:00,49.1,46.2,29.94,WNW,282,2.0,10.0,90,0.00,,,0.00,meteohub,2013-11-23 08:42:00,
2013-11-23 03:43:00,49.1,46.2,29.94,WNW,298,5.0,10.0,90,0.00,,,0.00,meteohub,2013-11-23 08:43:00,
2013-11-23 03:44:00,49.1,46.2,29.94,WNW,292,2.0,10.0,90,0.00,,,0.00,meteohub,2013-11-23 08:44:00,
2013-11-23 03:47:00,49.1,46.2,29.95,WNW,288,5.0,10.0,90,0.00,,,0.00,meteohub,2013-11-23 08:47:00,
2013-11-23 03:48:00,49.1,46.2,29.95,WNW,284,4.0,10.0,90,0.00,,,0.00,meteohub,2013-11-23 08:48:00,
2013-11-23 03:49:00,49.1,46.2,29.95,West,267,7.0,10.0,90,0.00,,,0.00,meteohub,2013-11-23 08:49:00,
2013-11-23 03:50:00,49.1,46.2,29.95,WNW,294,5.0,10.0,90,0.00,,,0.00,meteohub,2013-11-23 08:50:00,
2013-11-23 03:52:00,49.1,46.2,29.95,WNW,296,4.0,9.0,90,0.00,,,0.00,meteohub,2013-11-23 08:52:00,
2013-11-23 03:53:00,49.1,46.2,29.95,WNW,298,3.0,9.0,90,0.00,,,0.00,meteohub,2013-11-23 08:53:00,
2013-11-23 03:54:00,49.1,46.2,29.95,West,277,8.0,9.0,90,0.00,,,0.00,meteohub,2013-11-23 08:54:00,
2013-11-23 03:55:00,49.1,46.2,29.95,West,269,4.0,9.0,90,0.00,,,0.00,meteohub,2013-11-23 08:55:00,
2013-11-23 03:56:00,48.9,46.0,29.95,WNW,285,7.0,10.0,90,0.00,,,0.00,meteohub,2013-11-23 08:56:00,
2013-11-23 03:58:00,48.9,46.0,29.95,West,280,4.0,10.0,90,0.00,,,0.00,meteohub,2013-11-23 08:58:00,
2013-11-23 03:59:00,48.9,45.9,29.95,WNW,294,2.0,10.0,89,0.00,,,0.00,meteohub,2013-11-23 08:59:00,
2013-11-23 04:00:00,48.9,45.9,29.95,WSW,257,3.0,10.0,89,0.00,,,0.00,meteohub,2013-11-23 09:00:00,
2013-11-23 04:01:00,48.9,45.9,29.95,West,273,3.0,10.0,89,0.00,,,0.00,meteohub,2013-11-23 09:01:00,
2013-11-23 04:03:00,48.9,45.9,29.95,WSW,254,5.0,10.0,89,0.00,,,0.00,meteohub,2013-11-23 09:03:00,
2013-11-23 04:04:00,48.9,45.9,29.95,WNW,286,7.0,10.0,89,0.00,,,0.00,meteohub,2013-11-23 09:04:00,
2013-11-23 04:05:00,48.9,45.9,29.95,WSW,250,5.0,10.0,89,0.00,,,0.00,meteohub,2013-11-23 09:05:00,
2013-11-23 04:06:00,48.7,45.7,29.95,WNW,302,8.0,10.0,89,0.00,,,0.00,meteohub,2013-11-23 09:06:00,
2013-11-23 04:09:00,48.7,45.3,29.95,WNW,288,7.0,10.0,88,0.00,,,0.00,meteohub,2013-11-23 09:09:00,
2013-11-23 04:10:00,48.7,45.3,29.95,West,278,4.0,10.0,88,0.00,,,0.00,meteohub,2013-11-23 09:10:00,
2013-11-23 04:11:00,48.7,45.3,29.95,West,279,7.0,10.0,88,0.00,,,0.00,meteohub,2013-11-23 09:11:00,
2013-11-23 04:14:00,48.6,44.8,29.95,NW,311,3.0,10.0,87,0.00,,,0.00,meteohub,2013-11-23 09:14:00,
2013-11-23 04:15:00,48.6,44.8,29.95,West,280,2.0,9.0,87,0.00,,,0.00,meteohub,2013-11-23 09:15:00,
2013-11-23 04:16:00,48.6,44.8,29.95,West,275,3.0,9.0,87,0.00,,,0.00,meteohub,2013-11-23 09:16:00,
2013-11-23 04:17:00,48.6,44.8,29.95,WNW,288,2.0,9.0,87,0.00,,,0.00,meteohub,2013-11-23 09:17:00,
2013-11-23 04:19:00,48.6,44.8,29.95,WNW,298,4.0,9.0,87,0.00,,,0.00,meteohub,2013-11-23 09:19:00,
2013-11-23 04:21:00,48.6,44.8,29.95,WNW,284,6.0,10.0,87,0.00,,,0.00,meteohub,2013-11-23 09:21:00,
2013-11-23 04:22:00,48.6,44.6,29.95,NW,304,7.0,10.0,86,0.00,,,0.00,meteohub,2013-11-23 09:22:00,
2013-11-23 04:24:00,48.6,44.6,29.95,WNW,297,4.0,10.0,86,0.00,,,0.00,meteohub,2013-11-23 09:24:00,
2013-11-23 04:26:00,48.6,44.6,29.96,NW,313,6.0,10.0,86,0.00,,,0.00,meteohub,2013-11-23 09:26:00,
2013-11-23 04:27:00,48.4,44.4,29.96,West,273,2.0,10.0,86,0.00,,,0.00,meteohub,2013-11-23 09:27:00,
2013-11-23 04:28:00,48.4,44.1,29.96,West,273,9.0,10.0,85,0.00,,,0.00,meteohub,2013-11-23 09:28:00,
2013-11-23 04:29:00,48.4,44.1,29.96,WSW,257,5.0,10.0,85,0.00,,,0.00,meteohub,2013-11-23 09:29:00,
2013-11-23 04:31:00,48.2,43.9,29.96,WNW,294,5.0,10.0,85,0.00,,,0.00,meteohub,2013-11-23 09:31:00,
2013-11-23 04:32:00,48.4,44.1,29.96,West,269,6.0,10.0,85,0.00,,,0.00,meteohub,2013-11-23 09:32:00,
2013-11-23 04:33:00,48.2,43.5,29.96,West,281,6.0,10.0,84,0.00,,,0.00,meteohub,2013-11-23 09:33:00,
2013-11-23 04:34:00,48.2,43.5,29.96,WNW,292,5.0,10.0,84,0.00,,,0.00,meteohub,2013-11-23 09:34:00,
2013-11-23 04:36:00,48.2,43.5,29.96,West,277,4.0,11.0,84,0.00,,,0.00,meteohub,2013-11-23 09:36:00,
2013-11-23 04:37:00,48.2,43.5,29.96,WNW,290,5.0,11.0,84,0.00,,,0.00,meteohub,2013-11-23 09:37:00,
2013-11-23 04:38:00,48.2,43.3,29.96,WNW,286,4.0,11.0,83,0.00,,,0.00,meteohub,2013-11-23 09:38:00,
2013-11-23 04:39:00,48.0,43.2,29.96,West,264,4.0,11.0,83,0.00,,,0.00,meteohub,2013-11-23 09:39:00,
2013-11-23 04:41:00,48.0,43.2,29.96,WNW,300,2.0,11.0,83,0.00,,,0.00,meteohub,2013-11-23 09:41:00,
2013-11-23 04:42:00,48.0,43.2,29.96,West,276,2.0,11.0,83,0.00,,,0.00,meteohub,2013-11-23 09:42:00,
2013-11-23 04:43:00,48.0,43.2,29.96,WNW,302,8.0,11.0,83,0.00,,,0.00,meteohub,2013-11-23 09:43:00,
2013-11-23 04:45:00,47.8,42.6,29.96,WNW,285,2.0,11.0,82,0.00,,,0.00,meteohub,2013-11-23 09:45:00,
2013-11-23 04:46:00,47.8,42.6,29.96,NW,311,5.0,10.0,82,0.00,,,0.00,meteohub,2013-11-23 09:46:00,
2013-11-23 04:47:00,47.8,42.6,29.96,NW,307,3.0,10.0,82,0.00,,,0.00,meteohub,2013-11-23 09:47:00,
2013-11-23 04:48:00,47.7,42.4,29.96,WNW,286,3.0,10.0,82,0.00,,,0.00,meteohub,2013-11-23 09:48:00,
2013-11-23 04:50:00,47.7,42.1,29.96,NW,305,3.0,10.0,81,0.00,,,0.00,meteohub,2013-11-23 09:50:00,
2013-11-23 04:52:00,47.5,41.5,29.96,West,276,7.0,14.0,80,0.00,,,0.00,meteohub,2013-11-23 09:52:00,
2013-11-23 04:53:00,47.5,41.5,29.97,WNW,294,4.0,14.0,80,0.00,,,0.00,meteohub,2013-11-23 09:53:00,
2013-11-23 04:54:00,47.5,41.4,29.97,WNW,284,8.0,14.0,79,0.00,,,0.00,meteohub,2013-11-23 09:54:00,
2013-11-23 04:56:00,47.5,41.4,29.97,WNW,282,6.0,14.0,79,0.00,,,0.00,meteohub,2013-11-23 09:56:00,
2013-11-23 04:57:00,47.3,40.8,29.96,West,275,8.0,14.0,78,0.00,,,0.00,meteohub,2013-11-23 09:57:00,
2013-11-23 04:58:00,47.3,40.8,29.97,WNW,300,2.0,14.0,78,0.00,,,0.00,meteohub,2013-11-23 09:58:00,
2013-11-23 04:59:00,47.3,40.8,29.97,SW,234,5.0,14.0,78,0.00,,,0.00,meteohub,2013-11-23 09:59:00,
2013-11-23 05:00:00,47.1,40.3,29.97,WNW,285,4.0,14.0,77,0.00,,,0.00,meteohub,2013-11-23 10:00:00,
2013-11-23 05:02:00,47.1,40.3,29.97,West,277,10.0,13.0,77,0.00,,,0.00,meteohub,2013-11-23 10:02:00,
2013-11-23 05:03:00,47.1,40.3,29.97,WNW,292,5.0,13.0,77,0.00,,,0.00,meteohub,2013-11-23 10:03:00,
2013-11-23 05:04:00,47.1,40.3,29.97,North,0,9.0,13.0,77,0.00,,,0.00,meteohub,2013-11-23 10:04:00,
2013-11-23 05:05:00,47.1,39.9,29.97,North,350,10.0,13.0,76,0.00,,,0.00,meteohub,2013-11-23 10:05:00,
2013-11-23 05:07:00,46.9,39.7,29.97,WNW,290,7.0,14.0,76,0.00,,,0.00,meteohub,2013-11-23 10:07:00,
2013-11-23 05:08:00,46.9,39.7,29.97,West,273,6.0,14.0,76,0.00,,,0.00,meteohub,2013-11-23 10:08:00,
2013-11-23 05:09:00,46.9,39.7,29.97,WSW,246,9.0,14.0,76,0.00,,,0.00,meteohub,2013-11-23 10:09:00,
2013-11-23 05:10:00,46.9,39.7,29.97,West,281,8.0,14.0,76,0.00,,,0.00,meteohub,2013-11-23 10:10:00,
2013-11-23 05:12:00,46.9,39.7,29.97,NW,308,8.0,14.0,76,0.00,,,0.00,meteohub,2013-11-23 10:12:00,
2013-11-23 05:13:00,46.8,39.6,29.97,West,281,8.0,14.0,76,0.00,,,0.00,meteohub,2013-11-23 10:13:00,
2013-11-23 05:14:00,46.8,39.6,29.98,West,278,3.0,14.0,76,0.00,,,0.00,meteohub,2013-11-23 10:14:00,
2013-11-23 05:15:00,46.8,39.6,29.98,WNW,285,3.0,14.0,76,0.00,,,0.00,meteohub,2013-11-23 10:15:00,
2013-11-23 05:16:00,46.8,39.6,29.98,West,271,6.0,12.0,76,0.00,,,0.00,meteohub,2013-11-23 10:16:00,
2013-11-23 05:18:00,46.8,39.6,29.98,NW,313,6.0,12.0,76,0.00,,,0.00,meteohub,2013-11-23 10:18:00,
2013-11-23 05:19:00,46.6,39.4,29.98,WSW,245,5.0,12.0,76,0.00,,,0.00,meteohub,2013-11-23 10:19:00,
2013-11-23 05:20:00,46.6,39.0,29.98,West,281,6.0,12.0,75,0.00,,,0.00,meteohub,2013-11-23 10:20:00,
2013-11-23 05:21:00,46.6,39.0,29.98,WNW,302,4.0,12.0,75,0.00,,,0.00,meteohub,2013-11-23 10:21:00,
2013-11-23 05:23:00,46.6,39.0,29.98,West,279,6.0,12.0,75,0.00,,,0.00,meteohub,2013-11-23 10:23:00,
2013-11-23 05:25:00,46.4,38.8,29.99,WNW,298,3.0,12.0,75,0.00,,,0.00,meteohub,2013-11-23 10:25:00,
2013-11-23 05:26:00,46.4,38.8,29.99,NNW,343,5.0,14.0,75,0.00,,,0.00,meteohub,2013-11-23 10:26:00,
2013-11-23 05:28:00,46.2,38.7,29.99,WNW,283,4.0,14.0,75,0.00,,,0.00,meteohub,2013-11-23 10:28:00,
2013-11-23 05:29:00,46.2,38.7,29.99,West,281,9.0,14.0,75,0.00,,,0.00,meteohub,2013-11-23 10:29:00,
2013-11-23 05:31:00,46.2,38.7,29.99,West,277,3.0,14.0,75,0.00,,,0.00,meteohub,2013-11-23 10:31:00,
2013-11-23 05:32:00,46.2,38.7,29.99,West,259,6.0,14.0,75,0.00,,,0.00,meteohub,2013-11-23 10:32:00,
2013-11-23 05:33:00,46.2,38.7,29.99,WNW,290,8.0,14.0,75,0.00,,,0.00,meteohub,2013-11-23 10:33:00,
2013-11-23 05:34:00,46.0,38.5,29.99,WNW,299,5.0,14.0,75,0.00,,,0.00,meteohub,2013-11-23 10:34:00,
2013-11-23 05:35:00,46.0,38.5,29.99,WNW,298,5.0,14.0,75,0.00,,,0.00,meteohub,2013-11-23 10:35:00,
2013-11-23 05:36:00,46.0,38.5,29.99,NW,325,3.0,14.0,75,0.00,,,0.00,meteohub,2013-11-23 10:36:00,
2013-11-23 05:37:00,45.9,38.3,29.99,West,281,4.0,14.0,75,0.00,,,0.00,meteohub,2013-11-23 10:37:00,
2013-11-23 05:38:00,45.9,38.3,29.99,West,271,4.0,14.0,75,0.00,,,0.00,meteohub,2013-11-23 10:38:00,
2013-11-23 05:39:00,45.9,38.1,29.99,WNW,282,7.0,14.0,74,0.00,,,0.00,meteohub,2013-11-23 10:39:00,
2013-11-23 05:40:00,45.9,38.1,29.99,West,265,8.0,14.0,74,0.00,,,0.00,meteohub,2013-11-23 10:40:00,
2013-11-23 05:41:00,45.9,38.1,29.99,West,271,4.0,12.0,74,0.00,,,0.00,meteohub,2013-11-23 10:41:00,
2013-11-23 05:42:00,45.9,38.1,29.99,NW,304,2.0,12.0,74,0.00,,,0.00,meteohub,2013-11-23 10:42:00,
2013-11-23 05:43:00,45.7,37.9,29.99,WNW,285,6.0,12.0,74,0.00,,,0.00,meteohub,2013-11-23 10:43:00,
2013-11-23 05:44:00,45.7,37.9,29.99,WNW,293,8.0,12.0,74,0.00,,,0.00,meteohub,2013-11-23 10:44:00,
2013-11-23 05:45:00,45.7,37.9,29.99,West,279,7.0,12.0,74,0.00,,,0.00,meteohub,2013-11-23 10:45:00,
2013-11-23 05:46:00,45.5,37.4,29.99,WNW,286,8.0,12.0,73,0.00,,,0.00,meteohub,2013-11-23 10:46:00,
2013-11-23 05:47:00,45.5,37.4,29.99,WNW,298,5.0,12.0,73,0.00,,,0.00,meteohub,2013-11-23 10:47:00,
2013-11-23 05:48:00,45.5,37.4,29.99,West,272,6.0,12.0,73,0.00,,,0.00,meteohub,2013-11-23 10:48:00,
2013-11-23 05:49:00,45.3,36.9,29.99,WNW,298,3.0,12.0,72,0.00,,,0.00,meteohub,2013-11-23 10:49:00,
2013-11-23 05:50:00,45.3,36.9,29.99,NW,317,4.0,12.0,72,0.00,,,0.00,meteohub,2013-11-23 10:50:00,
2013-11-23 05:52:00,45.3,37.2,29.99,WSW,258,2.0,13.0,73,0.00,,,0.00,meteohub,2013-11-23 10:52:00,
2013-11-23 05:53:00,45.3,37.2,29.99,WNW,294,3.0,13.0,73,0.00,,,0.00,meteohub,2013-11-23 10:53:00,
2013-11-23 05:54:00,45.3,37.2,30.00,WNW,298,3.0,13.0,73,0.00,,,0.00,meteohub,2013-11-23 10:54:00,
2013-11-23 05:55:00,45.1,37.0,30.00,WNW,296,4.0,13.0,73,0.00,,,0.00,meteohub,2013-11-23 10:55:00,
2013-11-23 05:56:00,45.1,37.0,30.00,West,279,2.0,13.0,73,0.00,,,0.00,meteohub,2013-11-23 10:56:00,
2013-11-23 05:58:00,45.1,37.4,30.00,SW,220,1.0,13.0,74,0.00,,,0.00,meteohub,2013-11-23 10:58:00,
2013-11-23 05:59:00,45.0,37.2,30.00,WNW,296,3.0,13.0,74,0.00,,,0.00,meteohub,2013-11-23 10:59:00,
2013-11-23 06:00:00,45.0,37.2,30.00,WNW,298,1.0,13.0,74,0.00,,,0.00,meteohub,2013-11-23 11:00:00,
2013-11-23 06:01:00,45.0,37.2,30.00,NW,314,1.0,13.0,74,0.00,,,0.00,meteohub,2013-11-23 11:01:00,
2013-11-23 06:03:00,44.8,37.0,30.00,WNW,296,9.0,13.0,74,0.00,,,0.00,meteohub,2013-11-23 11:03:00,
2013-11-23 06:04:00,44.8,37.0,30.00,West,278,3.0,13.0,74,0.00,,,0.00,meteohub,2013-11-23 11:04:00,
2013-11-23 06:05:00,44.6,36.9,30.00,WNW,295,9.0,13.0,74,0.00,,,0.00,meteohub,2013-11-23 11:05:00,
2013-11-23 06:06:00,44.6,36.9,30.00,West,280,6.0,9.0,74,0.00,,,0.00,meteohub,2013-11-23 11:06:00,
2013-11-23 06:07:00,44.4,36.7,30.00,WNW,297,4.0,9.0,74,0.00,,,0.00,meteohub,2013-11-23 11:07:00,
2013-11-23 06:08:00,44.4,36.7,30.00,WNW,300,2.0,9.0,74,0.00,,,0.00,meteohub,2013-11-23 11:08:00,
2013-11-23 06:09:00,44.4,36.7,30.00,WNW,288,8.0,9.0,74,0.00,,,0.00,meteohub,2013-11-23 11:09:00,
2013-11-23 06:10:00,44.4,36.7,30.00,WNW,284,6.0,9.0,74,0.00,,,0.00,meteohub,2013-11-23 11:10:00,
2013-11-23 06:11:00,44.2,36.5,30.00,WNW,302,8.0,10.0,74,0.00,,,0.00,meteohub,2013-11-23 11:11:00,
2013-11-23 06:12:00,44.2,36.1,30.00,WNW,297,3.0,10.0,73,0.00,,,0.00,meteohub,2013-11-23 11:12:00,
2013-11-23 06:14:00,44.2,36.1,30.00,NW,319,3.0,10.0,73,0.00,,,0.00,meteohub,2013-11-23 11:14:00,
2013-11-23 06:16:00,44.1,36.0,30.00,WNW,282,2.0,10.0,73,0.00,,,0.00,meteohub,2013-11-23 11:16:00,
2013-11-23 06:17:00,44.1,36.0,30.00,WNW,294,7.0,10.0,73,0.00,,,0.00,meteohub,2013-11-23 11:17:00,
2013-11-23 06:19:00,43.9,35.8,30.00,NNW,346,6.0,10.0,73,0.00,,,0.00,meteohub,2013-11-23 11:19:00,
2013-11-23 06:20:00,43.9,35.8,30.00,WNW,288,3.0,10.0,73,0.00,,,0.00,meteohub,2013-11-23 11:20:00,
2013-11-23 06:21:00,43.7,35.2,30.00,West,278,2.0,10.0,72,0.00,,,0.00,meteohub,2013-11-23 11:21:00,
2013-11-23 06:22:00,43.7,35.2,30.00,WNW,289,4.0,10.0,72,0.00,,,0.00,meteohub,2013-11-23 11:22:00,
2013-11-23 06:23:00,43.7,35.2,30.00,WNW,286,3.0,10.0,72,0.00,,,0.00,meteohub,2013-11-23 11:23:00,
2013-11-23 06:24:00,43.5,35.1,30.00,ESE,121,1.0,10.0,72,0.00,,,0.00,meteohub,2013-11-23 11:24:00,
2013-11-23 06:25:00,43.5,35.1,30.00,NW,309,8.0,10.0,72,0.00,,,0.00,meteohub,2013-11-23 11:25:00,
2013-11-23 06:26:00,43.5,35.1,30.00,NW,311,9.0,10.0,72,0.00,,,0.00,meteohub,2013-11-23 11:26:00,
2013-11-23 06:27:00,43.5,35.1,30.00,WNW,287,1.0,10.0,72,0.00,,,0.00,meteohub,2013-11-23 11:27:00,
2013-11-23 06:28:00,43.5,35.1,30.00,WNW,293,7.0,10.0,72,0.00,,,0.00,meteohub,2013-11-23 11:28:00,
2013-11-23 06:30:00,43.5,35.4,30.01,NW,305,5.0,10.0,73,0.00,,,0.00,meteohub,2013-11-23 11:30:00,
2013-11-23 06:31:00,43.3,34.9,30.00,WNW,288,3.0,11.0,72,0.00,,,0.00,meteohub,2013-11-23 11:31:00,
2013-11-23 06:32:00,43.3,34.9,30.00,West,268,2.0,11.0,72,0.00,,,0.00,meteohub,2013-11-23 11:32:00,
2013-11-23 06:33:00,43.3,35.2,30.00,WNW,301,2.0,11.0,73,0.00,,,0.00,meteohub,2013-11-23 11:33:00,
2013-11-23 06:34:00,43.3,35.2,30.00,WNW,295,3.0,11.0,73,0.00,,,0.00,meteohub,2013-11-23 11:34:00,
2013-11-23 06:35:00,43.3,35.2,30.00,WNW,288,4.0,11.0,73,0.00,,,0.00,meteohub,2013-11-23 11:35:00,
2013-11-23 06:36:00,43.2,35.1,30.01,NW,305,3.0,11.0,73,0.00,,,0.00,meteohub,2013-11-23 11:36:00,
2013-11-23 06:37:00,43.2,35.1,30.01,West,281,2.0,11.0,73,0.00,,,0.00,meteohub,2013-11-23 11:37:00,
2013-11-23 06:39:00,43.2,35.1,30.01,WNW,295,3.0,11.0,73,0.00,,,0.00,meteohub,2013-11-23 11:39:00,
2013-11-23 06:40:00,43.2,35.1,30.01,WNW,285,3.0,11.0,73,0.00,,,0.00,meteohub,2013-11-23 11:40:00,
2013-11-23 06:41:00,43.0,35.2,30.01,WNW,292,2.0,10.0,74,0.00,,,0.00,meteohub,2013-11-23 11:41:00,
2013-11-23 06:43:00,43.0,35.2,30.01,WNW,289,4.0,10.0,74,0.00,,,0.00,meteohub,2013-11-23 11:43:00,
2013-11-23 06:44:00,43.0,35.2,30.01,West,263,3.0,10.0,74,0.00,,,0.00,meteohub,2013-11-23 11:44:00,
2013-11-23 06:45:00,43.0,35.2,30.01,WNW,294,4.0,10.0,74,0.00,,,0.00,meteohub,2013-11-23 11:45:00,
2013-11-23 06:47:00,42.8,35.1,30.01,West,276,4.0,8.0,74,0.00,,,0.00,meteohub,2013-11-23 11:47:00,
2013-11-23 06:49:00,42.6,35.2,30.02,WNW,292,3.0,8.0,75,0.00,,,0.00,meteohub,2013-11-23 11:49:00,
2013-11-23 06:50:00,42.6,35.2,30.02,WNW,282,4.0,8.0,75,0.00,,,0.00,meteohub,2013-11-23 11:50:00,
2013-11-23 06:52:00,42.6,35.2,30.02,WNW,299,1.0,8.0,75,0.00,,,0.00,meteohub,2013-11-23 11:52:00,
2013-11-23 06:55:00,42.4,35.1,30.02,NW,319,12.0,12.0,75,0.00,,,0.00,meteohub,2013-11-23 11:55:00,
2013-11-23 06:56:00,42.4,34.7,30.02,SE,146,2.0,8.0,74,0.00,,,0.00,meteohub,2013-11-23 11:56:00,
2013-11-23 06:57:00,42.4,34.7,30.02,SSE,157,2.0,8.0,74,0.00,,,0.00,meteohub,2013-11-23 11:57:00,
2013-11-23 06:59:00,42.3,34.2,30.03,WSW,245,8.0,8.0,73,0.00,,,0.00,meteohub,2013-11-23 11:59:00,
2013-11-23 07:00:00,42.3,34.2,30.03,SW,221,2.0,8.0,73,0.00,,,0.00,meteohub,2013-11-23 12:00:00,
2013-11-23 07:02:00,42.3,34.2,30.03,West,278,0.0,16.0,73,0.00,,,0.00,meteohub,2013-11-23 12:02:00,
2013-11-23 07:03:00,42.3,33.8,30.03,WNW,285,0.0,16.0,72,0.00,,,0.00,meteohub,2013-11-23 12:03:00,
2013-11-23 07:04:00,42.3,33.8,30.03,South,178,2.0,16.0,72,0.00,,,0.00,meteohub,2013-11-23 12:04:00,
2013-11-23 07:05:00,42.3,33.8,30.03,NW,326,11.0,16.0,72,0.00,,,0.00,meteohub,2013-11-23 12:05:00,
2013-11-23 07:06:00,42.3,33.6,30.03,West,281,2.0,16.0,71,0.00,,,0.00,meteohub,2013-11-23 12:06:00,
2013-11-23 07:07:00,42.1,33.4,30.03,WNW,284,2.0,16.0,71,0.00,,,0.00,meteohub,2013-11-23 12:07:00,
2013-11-23 07:08:00,42.1,33.4,30.03,West,271,2.0,16.0,71,0.00,,,0.00,meteohub,2013-11-23 12:08:00,
2013-11-23 07:09:00,42.1,33.4,30.03,West,271,3.0,16.0,71,0.00,,,0.00,meteohub,2013-11-23 12:09:00,
2013-11-23 07:10:00,42.1,33.4,30.03,West,265,1.0,11.0,71,0.00,,,0.00,meteohub,2013-11-23 12:10:00,
2013-11-23 07:11:00,42.1,33.4,30.03,WNW,302,1.0,11.0,71,0.00,,,0.00,meteohub,2013-11-23 12:11:00,
2013-11-23 07:12:00,42.1,33.4,30.03,WNW,299,4.0,11.0,71,0.00,,,0.00,meteohub,2013-11-23 12:12:00,
2013-11-23 07:13:00,42.1,33.4,30.03,West,266,1.0,11.0,71,0.00,,,0.00,meteohub,2013-11-23 12:13:00,
2013-11-23 07:14:00,41.9,33.3,30.03,NW,306,0.0,11.0,71,0.00,,,0.00,meteohub,2013-11-23 12:14:00,
2013-11-23 07:16:00,41.9,32.9,30.03,WSW,255,7.0,11.0,70,0.00,,,0.00,meteohub,2013-11-23 12:16:00,
2013-11-23 07:17:00,41.9,32.9,30.03,NW,306,3.0,11.0,70,0.00,,,0.00,meteohub,2013-11-23 12:17:00,
2013-11-23 07:18:00,41.9,32.9,30.03,WSW,244,0.0,11.0,70,0.00,,,0.00,meteohub,2013-11-23 12:18:00,
2013-11-23 07:19:00,41.7,32.7,30.03,SW,234,2.0,11.0,70,0.00,,,0.00,meteohub,2013-11-23 12:19:00,
2013-11-23 07:20:00,41.9,32.9,30.03,WNW,303,2.0,11.0,70,0.00,,,0.00,meteohub,2013-11-23 12:20:00,
2013-11-23 07:21:00,41.7,32.7,30.03,West,271,1.0,11.0,70,0.00,,,0.00,meteohub,2013-11-23 12:21:00,
2013-11-23 07:22:00,41.7,32.7,30.03,West,264,4.0,11.0,70,0.00,,,0.00,meteohub,2013-11-23 12:22:00,
2013-11-23 07:23:00,41.7,32.4,30.03,SE,142,1.0,11.0,69,0.00,,,0.00,meteohub,2013-11-23 12:23:00,
2013-11-23 07:25:00,41.7,32.4,30.03,West,275,2.0,11.0,69,0.00,,,0.00,meteohub,2013-11-23 12:25:00,
2013-11-23 07:26:00,41.7,32.4,30.03,West,262,0.0,10.0,69,0.00,,,0.00,meteohub,2013-11-23 12:26:00,
2013-11-23 07:28:00,41.9,32.5,30.03,WNW,299,9.0,10.0,69,0.00,,,0.00,meteohub,2013-11-23 12:28:00,
2013-11-23 07:29:00,41.9,32.5,30.03,WNW,292,8.0,10.0,69,0.00,,,0.00,meteohub,2013-11-23 12:29:00,
2013-11-23 07:30:00,41.9,32.5,30.03,WNW,292,7.0,10.0,69,0.00,,,0.00,meteohub,2013-11-23 12:30:00,
2013-11-23 07:31:00,41.9,32.5,30.03,North,355,2.0,10.0,69,0.00,,,0.00,meteohub,2013-11-23 12:31:00,
2013-11-23 07:33:00,41.9,32.5,30.03,NW,316,6.0,10.0,69,0.00,,,0.00,meteohub,2013-11-23 12:33:00,
2013-11-23 07:34:00,42.1,32.7,30.03,WNW,288,7.0,10.0,69,0.00,,,0.00,meteohub,2013-11-23 12:34:00,
2013-11-23 07:35:00,41.9,32.5,30.03,West,280,8.0,17.0,69,0.00,,,0.00,meteohub,2013-11-23 12:35:00,
2013-11-23 07:37:00,41.9,32.2,30.03,WNW,290,10.0,17.0,68,0.00,,,0.00,meteohub,2013-11-23 12:37:00,
2013-11-23 07:38:00,41.9,32.2,30.03,NNE,24,4.0,17.0,68,0.00,,,0.00,meteohub,2013-11-23 12:38:00,
2013-11-23 07:39:00,41.9,32.2,30.03,WNW,293,4.0,17.0,68,0.00,,,0.00,meteohub,2013-11-23 12:39:00,
2013-11-23 07:40:00,41.9,32.2,30.03,WNW,287,7.0,17.0,68,0.00,,,0.00,meteohub,2013-11-23 12:40:00,
2013-11-23 07:42:00,41.9,31.8,30.04,West,279,6.0,17.0,67,0.00,,,0.00,meteohub,2013-11-23 12:42:00,
2013-11-23 07:43:00,41.9,31.8,30.03,WNW,284,7.0,17.0,67,0.00,,,0.00,meteohub,2013-11-23 12:43:00,
2013-11-23 07:45:00,41.9,31.8,30.03,NW,319,4.0,17.0,67,0.00,,,0.00,meteohub,2013-11-23 12:45:00,
2013-11-23 07:46:00,41.9,32.2,30.03,NW,318,9.0,17.0,68,0.00,,,0.00,meteohub,2013-11-23 12:46:00,
2013-11-23 07:48:00,41.9,31.8,30.03,WNW,288,4.0,17.0,67,0.00,,,0.00,meteohub,2013-11-23 12:48:00,
2013-11-23 07:50:00,41.9,31.8,30.04,WNW,283,7.0,17.0,67,0.00,,,0.00,meteohub,2013-11-23 12:50:00,
2013-11-23 07:52:00,41.9,31.8,30.04,WNW,302,9.0,16.0,67,0.00,,,0.00,meteohub,2013-11-23 12:52:00,
2013-11-23 07:53:00,41.9,31.8,30.03,WNW,283,8.0,16.0,67,0.00,,,0.00,meteohub,2013-11-23 12:53:00,
2013-11-23 07:55:00,42.1,32.0,30.03,WNW,292,5.0,16.0,67,0.00,,,0.00,meteohub,2013-11-23 12:55:00,
2013-11-23 07:56:00,42.1,32.0,30.04,WNW,300,7.0,16.0,67,0.00,,,0.00,meteohub,2013-11-23 12:56:00,
2013-11-23 07:57:00,42.1,32.4,30.04,WNW,284,7.0,16.0,68,0.00,,,0.00,meteohub,2013-11-23 12:57:00,
2013-11-23 07:59:00,42.1,32.0,30.03,WNW,284,3.0,16.0,67,0.00,,,0.00,meteohub,2013-11-23 12:59:00,
2013-11-23 08:00:00,42.1,32.0,30.03,WNW,287,1.0,16.0,67,0.00,,,0.00,meteohub,2013-11-23 13:00:00,
2013-11-23 08:01:00,42.1,32.0,30.03,WNW,297,8.0,13.0,67,0.00,,,0.00,meteohub,2013-11-23 13:01:00,
2013-11-23 08:02:00,42.1,32.0,30.03,West,273,6.0,13.0,67,0.00,,,0.00,meteohub,2013-11-23 13:02:00,
2013-11-23 08:03:00,42.1,32.0,30.03,NW,321,3.0,13.0,67,0.00,,,0.00,meteohub,2013-11-23 13:03:00,
2013-11-23 08:04:00,42.1,32.0,30.03,West,266,3.0,13.0,67,0.00,,,0.00,meteohub,2013-11-23 13:04:00,
2013-11-23 08:06:00,42.1,32.0,30.03,West,277,4.0,13.0,67,0.00,,,0.00,meteohub,2013-11-23 13:06:00,
2013-11-23 08:07:00,42.1,32.0,30.03,ENE,74,9.0,13.0,67,0.00,,,0.00,meteohub,2013-11-23 13:07:00,
2013-11-23 08:08:00,42.1,31.5,30.03,WNW,299,5.0,13.0,66,0.00,,,0.00,meteohub,2013-11-23 13:08:00,
2013-11-23 08:09:00,42.1,31.5,30.03,West,259,10.0,13.0,66,0.00,,,0.00,meteohub,2013-11-23 13:09:00,
2013-11-23 08:11:00,42.1,31.5,30.03,West,260,4.0,13.0,66,0.00,,,0.00,meteohub,2013-11-23 13:11:00,
2013-11-23 08:12:00,42.1,31.5,30.03,West,278,4.0,13.0,66,0.00,,,0.00,meteohub,2013-11-23 13:12:00,
2013-11-23 08:13:00,42.1,31.5,30.03,North,355,6.0,13.0,66,0.00,,,0.00,meteohub,2013-11-23 13:13:00,
2013-11-23 08:14:00,42.1,31.5,30.03,WNW,292,9.0,13.0,66,0.00,,,0.00,meteohub,2013-11-23 13:14:00,
2013-11-23 08:15:00,42.1,31.5,30.03,WNW,298,7.0,13.0,66,0.00,,,0.00,meteohub,2013-11-23 13:15:00,
2013-11-23 08:16:00,42.3,31.6,30.03,NW,324,9.0,14.0,66,0.00,,,0.00,meteohub,2013-11-23 13:16:00,
2013-11-23 08:18:00,42.3,31.6,30.03,NW,304,5.0,14.0,66,0.00,,,0.00,meteohub,2013-11-23 13:18:00,
2013-11-23 08:19:00,42.3,31.6,30.03,WNW,291,5.0,14.0,66,0.00,,,0.00,meteohub,2013-11-23 13:19:00,
2013-11-23 08:20:00,42.3,31.6,30.03,WNW,284,3.0,14.0,66,0.00,,,0.00,meteohub,2013-11-23 13:20:00,
2013-11-23 08:21:00,42.3,31.6,30.02,WNW,298,13.0,14.0,66,0.00,,,0.00,meteohub,2013-11-23 13:21:00,
2013-11-23 08:23:00,42.3,31.3,30.03,NW,307,2.0,14.0,65,0.00,,,0.00,meteohub,2013-11-23 13:23:00,
2013-11-23 08:24:00,42.3,31.3,30.03,WNW,298,0.0,14.0,65,0.00,,,0.00,meteohub,2013-11-23 13:24:00,
2013-11-23 08:25:00,42.4,31.8,30.02,WNW,282,4.0,14.0,66,0.00,,,0.00,meteohub,2013-11-23 13:25:00,
2013-11-23 08:26:00,42.4,31.8,30.02,West,260,3.0,14.0,66,0.00,,,0.00,meteohub,2013-11-23 13:26:00,
2013-11-23 08:28:00,42.4,31.8,30.02,West,278,4.0,14.0,66,0.00,,,0.00,meteohub,2013-11-23 13:28:00,
2013-11-23 08:30:00,42.6,31.6,30.02,NW,313,8.0,14.0,65,0.00,,,0.00,meteohub,2013-11-23 13:30:00,
2013-11-23 08:31:00,42.6,31.6,30.02,WNW,288,7.0,13.0,65,0.00,,,0.00,meteohub,2013-11-23 13:31:00,
2013-11-23 08:32:00,42.6,31.6,30.02,NW,319,6.0,13.0,65,0.00,,,0.00,meteohub,2013-11-23 13:32:00,
2013-11-23 08:33:00,42.6,31.3,30.02,WNW,292,4.0,13.0,64,0.00,,,0.00,meteohub,2013-11-23 13:33:00,
2013-11-23 08:35:00,42.6,31.6,30.02,West,281,3.0,13.0,65,0.00,,,0.00,meteohub,2013-11-23 13:35:00,
2013-11-23 08:36:00,42.6,31.6,30.02,WNW,298,4.0,13.0,65,0.00,,,0.00,meteohub,2013-11-23 13:36:00,
2013-11-23 08:37:00,42.6,31.6,30.02,West,261,2.0,13.0,65,0.00,,,0.00,meteohub,2013-11-23 13:37:00,
2013-11-23 08:39:00,42.8,32.2,30.02,North,349,2.0,13.0,66,0.00,,,0.00,meteohub,2013-11-23 13:39:00,
2013-11-23 08:40:00,43.0,32.4,30.03,West,280,4.0,13.0,66,0.00,,,0.00,meteohub,2013-11-23 13:40:00,
2013-11-23 08:41:00,43.0,32.0,30.03,NW,312,6.0,12.0,65,0.00,,,0.00,meteohub,2013-11-23 13:41:00,
2013-11-23 08:42:00,43.0,31.6,30.02,WNW,285,2.0,12.0,64,0.00,,,0.00,meteohub,2013-11-23 13:42:00,
2013-11-23 08:44:00,43.0,31.6,30.03,SW,227,5.0,12.0,64,0.00,,,0.00,meteohub,2013-11-23 13:44:00,
2013-11-23 08:45:00,43.0,31.6,30.03,WSW,244,2.0,12.0,64,0.00,,,0.00,meteohub,2013-11-23 13:45:00,
2013-11-23 08:46:00,43.2,31.8,30.03,SW,232,2.0,12.0,64,0.00,,,0.00,meteohub,2013-11-23 13:46:00,
2013-11-23 08:48:00,43.2,31.8,30.03,SW,232,4.0,12.0,64,0.00,,,0.00,meteohub,2013-11-23 13:48:00,
2013-11-23 08:49:00,43.2,31.8,30.03,NNW,347,3.0,12.0,64,0.00,,,0.00,meteohub,2013-11-23 13:49:00,
2013-11-23 08:50:00,43.3,32.0,30.03,WNW,288,4.0,12.0,64,0.00,,,0.00,meteohub,2013-11-23 13:50:00,
2013-11-23 08:52:00,43.3,31.6,30.03,WNW,283,4.0,12.0,63,0.00,,,0.00,meteohub,2013-11-23 13:52:00,
2013-11-23 08:53:00,43.3,31.6,30.03,WSW,243,4.0,12.0,63,0.00,,,0.00,meteohub,2013-11-23 13:53:00,
2013-11-23 08:54:00,43.5,31.8,30.03,NNE,23,2.0,12.0,63,0.00,,,0.00,meteohub,2013-11-23 13:54:00,
2013-11-23 08:55:00,43.5,31.8,30.02,WNW,290,1.0,12.0,63,0.00,,,0.00,meteohub,2013-11-23 13:55:00,
2013-11-23 08:56:00,43.5,31.3,30.03,WSW,250,1.0,12.0,62,0.00,,,0.00,meteohub,2013-11-23 13:56:00,
2013-11-23 08:57:00,43.7,32.0,30.03,SSE,155,2.0,12.0,63,0.00,,,0.00,meteohub,2013-11-23 13:57:00,
2013-11-23 08:58:00,43.9,31.6,30.02,West,269,3.0,12.0,62,0.00,,,0.00,meteohub,2013-11-23 13:58:00,
2013-11-23 08:59:00,43.9,31.6,30.03,WNW,295,4.0,12.0,62,0.00,,,0.00,meteohub,2013-11-23 13:59:00,
2013-11-23 09:00:00,43.9,31.6,30.03,West,265,1.0,12.0,62,0.00,,,0.00,meteohub,2013-11-23 14:00:00,
2013-11-23 09:02:00,43.9,31.6,30.02,WNW,286,3.0,9.0,62,0.00,,,0.00,meteohub,2013-11-23 14:02:00,
2013-11-23 09:04:00,44.1,31.5,30.02,WSW,244,1.0,9.0,61,0.00,,,0.00,meteohub,2013-11-23 14:04:00,
2013-11-23 09:05:00,44.1,31.5,30.02,West,276,8.0,9.0,61,0.00,,,0.00,meteohub,2013-11-23 14:05:00,
2013-11-23 09:07:00,43.9,31.3,30.02,West,265,2.0,9.0,61,0.00,,,0.00,meteohub,2013-11-23 14:07:00,
2013-11-23 09:08:00,43.9,31.3,30.02,West,279,13.0,13.0,61,0.00,,,0.00,meteohub,2013-11-23 14:08:00,
2013-11-23 09:10:00,43.7,31.1,30.02,WNW,296,0.0,13.0,61,0.00,,,0.00,meteohub,2013-11-23 14:10:00,
2013-11-23 09:11:00,43.7,31.1,30.03,West,277,3.0,13.0,61,0.00,,,0.00,meteohub,2013-11-23 14:11:00,
2013-11-23 09:12:00,43.9,31.6,30.02,WNW,298,7.0,13.0,62,0.00,,,0.00,meteohub,2013-11-23 14:12:00,
2013-11-23 09:14:00,43.9,31.6,30.02,West,276,7.0,13.0,62,0.00,,,0.00,meteohub,2013-11-23 14:14:00,
2013-11-23 09:16:00,44.1,31.5,30.02,West,269,1.0,13.0,61,0.00,,,0.00,meteohub,2013-11-23 14:16:00,
2013-11-23 09:17:00,44.1,31.5,30.03,WSW,253,3.0,13.0,61,0.00,,,0.00,meteohub,2013-11-23 14:17:00,
2013-11-23 09:18:00,44.2,31.6,30.03,NW,312,4.0,13.0,61,0.00,,,0.00,meteohub,2013-11-23 14:18:00,
2013-11-23 09:19:00,44.2,31.3,30.03,WNW,289,5.0,13.0,60,0.00,,,0.00,meteohub,2013-11-23 14:19:00,
2013-11-23 09:22:00,44.4,31.5,30.03,WNW,284,3.0,13.0,60,0.00,,,0.00,meteohub,2013-11-23 14:22:00,
2013-11-23 09:23:00,44.4,31.5,30.03,WNW,291,2.0,13.0,60,0.00,,,0.00,meteohub,2013-11-23 14:23:00,
2013-11-23 09:24:00,44.6,31.1,30.03,West,262,1.0,13.0,59,0.00,,,0.00,meteohub,2013-11-23 14:24:00,
2013-11-23 09:27:00,45.0,31.5,30.03,WNW,295,2.0,11.0,59,0.00,,,0.00,meteohub,2013-11-23 14:27:00,
2013-11-23 09:28:00,45.0,31.1,30.03,West,271,4.0,11.0,58,0.00,,,0.00,meteohub,2013-11-23 14:28:00,
2013-11-23 09:29:00,45.0,31.1,30.03,ENE,69,2.0,11.0,58,0.00,,,0.00,meteohub,2013-11-23 14:29:00,
2013-11-23 09:30:00,45.0,31.1,30.03,NW,309,3.0,11.0,58,0.00,,,0.00,meteohub,2013-11-23 14:30:00,
2013-11-23 09:32:00,45.0,30.6,30.03,West,273,6.0,10.0,57,0.00,,,0.00,meteohub,2013-11-23 14:32:00,
2013-11-23 09:33:00,44.8,30.0,30.03,SW,223,2.0,10.0,56,0.00,,,0.00,meteohub,2013-11-23 14:33:00,
2013-11-23 09:34:00,44.8,30.0,30.03,West,273,4.0,10.0,56,0.00,,,0.00,meteohub,2013-11-23 14:34:00,
2013-11-23 09:35:00,44.8,30.6,30.03,South,180,1.0,10.0,57,0.00,,,0.00,meteohub,2013-11-23 14:35:00,
2013-11-23 09:37:00,44.8,30.9,30.03,WNW,298,4.0,10.0,58,0.00,,,0.00,meteohub,2013-11-23 14:37:00,
2013-11-23 09:38:00,44.8,30.9,30.03,WNW,302,2.0,10.0,58,0.00,,,0.00,meteohub,2013-11-23 14:38:00,
2013-11-23 09:39:00,45.0,31.1,30.03,WNW,293,7.0,10.0,58,0.00,,,0.00,meteohub,2013-11-23 14:39:00,
2013-11-23 09:41:00,45.0,30.6,30.03,WSW,246,2.0,11.0,57,0.00,,,0.00,meteohub,2013-11-23 14:41:00,
2013-11-23 09:42:00,45.0,30.6,30.03,West,277,6.0,11.0,57,0.00,,,0.00,meteohub,2013-11-23 14:42:00,
2013-11-23 09:44:00,45.0,30.6,30.02,WNW,297,3.0,11.0,57,0.00,,,0.00,meteohub,2013-11-23 14:44:00,
2013-11-23 09:45:00,45.0,30.2,30.02,West,271,6.0,11.0,56,0.00,,,0.00,meteohub,2013-11-23 14:45:00,
2013-11-23 09:46:00,45.0,30.2,30.02,NW,325,5.0,11.0,56,0.00,,,0.00,meteohub,2013-11-23 14:46:00,
2013-11-23 09:48:00,45.0,30.2,30.02,West,267,2.0,11.0,56,0.00,,,0.00,meteohub,2013-11-23 14:48:00,
2013-11-23 09:49:00,45.0,30.2,30.02,West,277,3.0,11.0,56,0.00,,,0.00,meteohub,2013-11-23 14:49:00,
2013-11-23 09:50:00,45.0,30.2,30.02,NW,315,5.0,11.0,56,0.00,,,0.00,meteohub,2013-11-23 14:50:00,
2013-11-23 09:51:00,45.1,30.4,30.02,West,273,7.0,12.0,56,0.00,,,0.00,meteohub,2013-11-23 14:51:00,
2013-11-23 09:52:00,45.1,30.4,30.02,West,273,3.0,12.0,56,0.00,,,0.00,meteohub,2013-11-23 14:52:00,
2013-11-23 09:53:00,45.3,30.6,30.02,ENE,60,1.0,12.0,56,0.00,,,0.00,meteohub,2013-11-23 14:53:00,
2013-11-23 09:54:00,45.3,30.6,30.02,WNW,289,1.0,12.0,56,0.00,,,0.00,meteohub,2013-11-23 14:54:00,
2013-11-23 09:55:00,45.3,30.0,30.02,West,274,4.0,12.0,55,0.00,,,0.00,meteohub,2013-11-23 14:55:00,
2013-11-23 09:56:00,45.5,30.2,30.02,WSW,240,2.0,12.0,55,0.00,,,0.00,meteohub,2013-11-23 14:56:00,
2013-11-23 09:57:00,45.7,30.9,30.02,WNW,293,2.0,12.0,56,0.00,,,0.00,meteohub,2013-11-23 14:57:00,
2013-11-23 09:58:00,45.7,30.0,30.02,West,278,6.0,12.0,54,0.00,,,0.00,meteohub,2013-11-23 14:58:00,
2013-11-23 09:59:00,45.9,30.2,30.02,NNE,26,1.0,12.0,54,0.00,,,0.00,meteohub,2013-11-23 14:59:00,
2013-11-23 10:00:00,45.9,30.6,30.02,West,272,2.0,10.0,55,0.00,,,0.00,meteohub,2013-11-23 15:00:00,
2013-11-23 10:01:00,46.0,30.4,30.02,West,269,3.0,10.0,54,0.00,,,0.00,meteohub,2013-11-23 15:01:00,
2013-11-23 10:02:00,46.0,30.4,30.02,NW,320,3.0,10.0,54,0.00,,,0.00,meteohub,2013-11-23 15:02:00,
2013-11-23 10:03:00,46.2,30.0,30.02,WNW,288,4.0,10.0,53,0.00,,,0.00,meteohub,2013-11-23 15:03:00,
2013-11-23 10:05:00,46.2,30.0,30.02,West,265,3.0,10.0,53,0.00,,,0.00,meteohub,2013-11-23 15:05:00,
2013-11-23 10:07:00,46.4,30.2,30.02,WNW,292,2.0,14.0,53,0.00,,,0.00,meteohub,2013-11-23 15:07:00,
2013-11-23 10:08:00,46.4,29.7,30.02,West,273,3.0,14.0,52,0.00,,,0.00,meteohub,2013-11-23 15:08:00,
2013-11-23 10:09:00,46.4,29.7,30.02,NW,317,2.0,14.0,52,0.00,,,0.00,meteohub,2013-11-23 15:09:00,
2013-11-23 10:10:00,46.6,29.8,30.02,SE,137,2.0,14.0,52,0.00,,,0.00,meteohub,2013-11-23 15:10:00,
2013-11-23 10:12:00,46.6,29.5,30.02,NNE,18,2.0,14.0,51,0.00,,,0.00,meteohub,2013-11-23 15:12:00,
2013-11-23 10:13:00,46.6,29.8,30.02,West,279,2.0,14.0,52,0.00,,,0.00,meteohub,2013-11-23 15:13:00,
2013-11-23 10:14:00,46.6,29.8,30.02,West,271,4.0,14.0,52,0.00,,,0.00,meteohub,2013-11-23 15:14:00,
2013-11-23 10:15:00,46.8,30.0,30.02,WSW,258,2.0,14.0,52,0.00,,,0.00,meteohub,2013-11-23 15:15:00,
2013-11-23 10:18:00,47.1,29.8,30.02,NW,322,5.0,14.0,51,0.00,,,0.00,meteohub,2013-11-23 15:18:00,
2013-11-23 10:19:00,47.1,29.8,30.02,WSW,237,2.0,14.0,51,0.00,,,0.00,meteohub,2013-11-23 15:19:00,
2013-11-23 10:20:00,47.1,29.5,30.02,West,277,8.0,10.0,50,0.00,,,0.00,meteohub,2013-11-23 15:20:00,
2013-11-23 10:21:00,47.1,29.5,30.02,NW,311,4.0,10.0,50,0.00,,,0.00,meteohub,2013-11-23 15:21:00,
2013-11-23 10:23:00,47.5,29.8,30.02,West,259,3.0,10.0,50,0.00,,,0.00,meteohub,2013-11-23 15:23:00,
2013-11-23 10:24:00,47.5,29.3,30.02,West,275,2.0,10.0,49,0.00,,,0.00,meteohub,2013-11-23 15:24:00,
2013-11-23 10:25:00,47.7,30.0,30.02,NW,313,2.0,9.0,50,0.00,,,0.00,meteohub,2013-11-23 15:25:00,
2013-11-23 10:26:00,47.7,30.0,30.02,NW,320,1.0,9.0,50,0.00,,,0.00,meteohub,2013-11-23 15:26:00,
2013-11-23 10:29:00,47.8,30.0,30.02,WNW,303,7.0,9.0,50,0.00,,,0.00,meteohub,2013-11-23 15:29:00,
2013-11-23 10:30:00,47.8,30.0,30.01,South,184,2.0,9.0,50,0.00,,,0.00,meteohub,2013-11-23 15:30:00,
2013-11-23 10:31:00,47.8,29.7,30.01,SW,221,1.0,13.0,49,0.00,,,0.00,meteohub,2013-11-23 15:31:00,
2013-11-23 10:34:00,48.0,29.8,30.01,West,269,4.0,13.0,49,0.00,,,0.00,meteohub,2013-11-23 15:34:00,
2013-11-23 10:35:00,48.0,29.8,30.01,West,275,6.0,13.0,49,0.00,,,0.00,meteohub,2013-11-23 15:35:00,
2013-11-23 10:36:00,47.8,29.7,30.01,WNW,298,7.0,13.0,49,0.00,,,0.00,meteohub,2013-11-23 15:36:00,
2013-11-23 10:37:00,47.8,30.0,30.01,WNW,293,4.0,13.0,50,0.00,,,0.00,meteohub,2013-11-23 15:37:00,
2013-11-23 10:40:00,48.0,29.8,30.01,WNW,289,7.0,13.0,49,0.00,,,0.00,meteohub,2013-11-23 15:40:00,
2013-11-23 10:41:00,47.8,29.7,30.01,West,268,9.0,13.0,49,0.00,,,0.00,meteohub,2013-11-23 15:41:00,
2013-11-23 10:42:00,47.8,29.7,30.01,NW,310,4.0,13.0,49,0.00,,,0.00,meteohub,2013-11-23 15:42:00,
2013-11-23 10:46:00,48.2,29.5,30.01,WNW,291,8.0,14.0,48,0.00,,,0.00,meteohub,2013-11-23 15:46:00,
2013-11-23 10:48:00,48.4,29.1,30.01,West,265,8.0,14.0,47,0.00,,,0.00,meteohub,2013-11-23 15:48:00,
2013-11-23 10:51:00,48.4,29.1,30.00,WNW,300,8.0,14.0,47,0.00,,,0.00,meteohub,2013-11-23 15:51:00,
2013-11-23 10:52:00,48.4,28.6,30.00,WNW,290,8.0,14.0,46,0.00,,,0.00,meteohub,2013-11-23 15:52:00,
2013-11-23 10:53:00,48.0,28.2,30.00,WNW,293,4.0,14.0,46,0.00,,,0.00,meteohub,2013-11-23 15:53:00,
2013-11-23 10:54:00,48.0,27.7,30.00,NW,307,7.0,14.0,45,0.00,,,0.00,meteohub,2013-11-23 15:54:00,
2013-11-23 10:56:00,47.7,27.3,30.00,ENE,63,2.0,14.0,45,0.00,,,0.00,meteohub,2013-11-23 15:56:00,
2013-11-23 10:59:00,47.7,27.3,30.00,NW,317,13.0,14.0,45,0.00,,,0.00,meteohub,2013-11-23 15:59:00,
2013-11-23 11:00:00,47.5,27.1,30.00,WNW,294,5.0,14.0,45,0.00,,,0.00,meteohub,2013-11-23 16:00:00,
2013-11-23 11:01:00,47.5,27.7,30.00,WSW,247,1.0,14.0,46,0.00,,,0.00,meteohub,2013-11-23 16:01:00,
2013-11-23 11:02:00,47.5,27.7,30.00,West,279,7.0,14.0,46,0.00,,,0.00,meteohub,2013-11-23 16:02:00,
2013-11-23 11:03:00,47.5,27.7,30.00,WNW,283,7.0,14.0,46,0.00,,,0.00,meteohub,2013-11-23 16:03:00,
2013-11-23 11:04:00,47.5,27.7,30.00,WNW,288,7.0,14.0,46,0.00,,,0.00,meteohub,2013-11-23 16:04:00,
2013-11-23 11:05:00,47.1,27.3,30.00,West,269,6.0,16.0,46,0.00,,,0.00,meteohub,2013-11-23 16:05:00,
2013-11-23 11:06:00,47.1,27.3,30.00,WNW,288,3.0,16.0,46,0.00,,,0.00,meteohub,2013-11-23 16:06:00,
2013-11-23 11:08:00,47.1,27.9,29.99,West,270,6.0,16.0,47,0.00,,,0.00,meteohub,2013-11-23 16:08:00,
2013-11-23 11:09:00,47.1,27.3,29.99,West,271,7.0,16.0,46,0.00,,,0.00,meteohub,2013-11-23 16:09:00,
2013-11-23 11:10:00,47.1,27.3,29.99,WNW,292,4.0,16.0,46,0.00,,,0.00,meteohub,2013-11-23 16:10:00,
2013-11-23 11:11:00,47.1,27.3,30.00,NW,325,4.0,16.0,46,0.00,,,0.00,meteohub,2013-11-23 16:11:00,
2013-11-23 11:13:00,47.1,26.8,30.00,West,281,8.0,16.0,45,0.00,,,0.00,meteohub,2013-11-23 16:13:00,
2013-11-23 11:14:00,47.1,26.8,30.00,West,275,4.0,16.0,45,0.00,,,0.00,meteohub,2013-11-23 16:14:00,
2013-11-23 11:15:00,47.1,26.8,30.00,West,279,9.0,16.0,45,0.00,,,0.00,meteohub,2013-11-23 16:15:00,
2013-11-23 11:17:00,47.1,26.8,30.00,West,270,8.0,16.0,45,0.00,,,0.00,meteohub,2013-11-23 16:17:00,
2013-11-23 11:19:00,47.1,26.8,30.00,WSW,253,2.0,16.0,45,0.00,,,0.00,meteohub,2013-11-23 16:19:00,
2013-11-23 11:20:00,47.1,26.8,30.00,West,271,4.0,16.0,45,0.00,,,0.00,meteohub,2013-11-23 16:20:00,
2013-11-23 11:21:00,47.1,26.8,30.00,West,275,4.0,16.0,45,0.00,,,0.00,meteohub,2013-11-23 16:21:00,
2013-11-23 11:22:00,47.5,27.1,30.00,West,279,6.0,16.0,45,0.00,,,0.00,meteohub,2013-11-23 16:22:00,
2013-11-23 11:25:00,47.7,28.4,29.99,WNW,289,3.0,16.0,47,0.00,,,0.00,meteohub,2013-11-23 16:25:00,
2013-11-23 11:26:00,47.7,28.4,29.99,WNW,287,4.0,16.0,47,0.00,,,0.00,meteohub,2013-11-23 16:26:00,
2013-11-23 11:28:00,47.8,28.6,29.99,WNW,298,3.0,16.0,47,0.00,,,0.00,meteohub,2013-11-23 16:28:00,
2013-11-23 11:29:00,47.7,28.4,29.99,WNW,282,6.0,16.0,47,0.00,,,0.00,meteohub,2013-11-23 16:29:00,
2013-11-23 11:30:00,47.7,28.9,29.99,West,269,4.0,16.0,48,0.00,,,0.00,meteohub,2013-11-23 16:30:00,
2013-11-23 11:31:00,47.7,28.9,29.99,WNW,285,8.0,13.0,48,0.00,,,0.00,meteohub,2013-11-23 16:31:00,
2013-11-23 11:32:00,47.7,28.4,29.99,NW,306,8.0,13.0,47,0.00,,,0.00,meteohub,2013-11-23 16:32:00,
2013-11-23 11:33:00,47.7,28.4,29.99,West,279,7.0,13.0,47,0.00,,,0.00,meteohub,2013-11-23 16:33:00,
2013-11-23 11:35:00,47.7,28.9,29.99,WNW,284,8.0,13.0,48,0.00,,,0.00,meteohub,2013-11-23 16:35:00,
2013-11-23 11:37:00,47.7,28.9,29.99,WNW,299,8.0,15.0,48,0.00,,,0.00,meteohub,2013-11-23 16:37:00,
2013-11-23 11:38:00,47.5,28.8,29.99,WNW,298,7.0,15.0,48,0.00,,,0.00,meteohub,2013-11-23 16:38:00,
2013-11-23 11:40:00,47.5,28.8,29.99,WSW,258,8.0,15.0,48,0.00,,,0.00,meteohub,2013-11-23 16:40:00,
2013-11-23 11:41:00,47.5,28.8,29.99,West,273,9.0,15.0,48,0.00,,,0.00,meteohub,2013-11-23 16:41:00,
2013-11-23 11:42:00,47.5,29.3,29.99,West,277,6.0,15.0,49,0.00,,,0.00,meteohub,2013-11-23 16:42:00,
2013-11-23 11:44:00,47.5,29.3,29.99,WNW,296,10.0,15.0,49,0.00,,,0.00,meteohub,2013-11-23 16:44:00,
2013-11-23 11:45:00,47.5,29.3,29.99,West,281,8.0,15.0,49,0.00,,,0.00,meteohub,2013-11-23 16:45:00,
2013-11-23 11:46:00,47.7,29.5,29.99,WNW,290,4.0,16.0,49,0.00,,,0.00,meteohub,2013-11-23 16:46:00,
2013-11-23 11:47:00,47.7,28.9,29.99,WSW,249,4.0,16.0,48,0.00,,,0.00,meteohub,2013-11-23 16:47:00,
2013-11-23 11:48:00,47.8,29.1,29.99,WSW,256,1.0,16.0,48,0.00,,,0.00,meteohub,2013-11-23 16:48:00,
2013-11-23 11:49:00,47.8,29.1,29.98,WNW,284,7.0,16.0,48,0.00,,,0.00,meteohub,2013-11-23 16:49:00,
2013-11-23 11:50:00,47.8,28.6,29.98,WNW,303,4.0,16.0,47,0.00,,,0.00,meteohub,2013-11-23 16:50:00,
2013-11-23 11:51:00,47.7,28.4,29.98,West,271,8.0,16.0,47,0.00,,,0.00,meteohub,2013-11-23 16:51:00,
2013-11-23 11:52:00,47.7,28.4,29.98,WSW,249,2.0,16.0,47,0.00,,,0.00,meteohub,2013-11-23 16:52:00,
2013-11-23 11:53:00,47.7,28.4,29.98,West,275,14.0,16.0,47,0.00,,,0.00,meteohub,2013-11-23 16:53:00,
2013-11-23 11:54:00,47.7,28.4,29.98,West,277,6.0,16.0,47,0.00,,,0.00,meteohub,2013-11-23 16:54:00,
2013-11-23 11:55:00,47.7,28.9,29.98,West,265,4.0,14.0,48,0.00,,,0.00,meteohub,2013-11-23 16:55:00,
2013-11-23 11:56:00,47.7,28.9,29.98,WNW,294,8.0,14.0,48,0.00,,,0.00,meteohub,2013-11-23 16:56:00,
2013-11-23 11:58:00,47.8,29.1,29.98,West,259,7.0,14.0,48,0.00,,,0.00,meteohub,2013-11-23 16:58:00,
2013-11-23 11:59:00,48.0,29.3,29.97,NNE,31,3.0,14.0,48,0.00,,,0.00,meteohub,2013-11-23 16:59:00,
2013-11-23 12:00:00,48.0,29.3,29.97,West,270,2.0,14.0,48,0.00,,,0.00,meteohub,2013-11-23 17:00:00,
2013-11-23 12:01:00,48.0,28.2,29.97,West,264,4.0,14.0,46,0.00,,,0.00,meteohub,2013-11-23 17:01:00,
2013-11-23 12:02:00,48.4,28.6,29.98,SSE,154,4.0,14.0,46,0.00,,,0.00,meteohub,2013-11-23 17:02:00,
2013-11-23 12:04:00,48.4,27.5,29.98,WNW,293,4.0,14.0,44,0.00,,,0.00,meteohub,2013-11-23 17:04:00,
2013-11-23 12:05:00,48.6,27.7,29.97,NE,39,7.0,14.0,44,0.00,,,0.00,meteohub,2013-11-23 17:05:00,
2013-11-23 12:06:00,48.6,27.7,29.97,West,260,8.0,14.0,44,0.00,,,0.00,meteohub,2013-11-23 17:06:00,
2013-11-23 12:07:00,48.6,26.4,29.97,WNW,289,2.0,14.0,42,0.00,,,0.00,meteohub,2013-11-23 17:07:00,
2013-11-23 12:09:00,48.7,26.6,29.97,West,279,1.0,14.0,42,0.00,,,0.00,meteohub,2013-11-23 17:09:00,
2013-11-23 12:11:00,48.7,27.9,29.97,NW,311,1.0,13.0,44,0.00,,,0.00,meteohub,2013-11-23 17:11:00,
2013-11-23 12:12:00,48.9,28.0,29.97,WNW,285,4.0,13.0,44,0.00,,,0.00,meteohub,2013-11-23 17:12:00,
2013-11-23 12:14:00,49.1,28.0,29.97,West,271,4.0,13.0,44,0.00,,,0.00,meteohub,2013-11-23 17:14:00,
2013-11-23 12:16:00,48.7,27.9,29.97,WNW,288,5.0,16.0,44,0.00,,,0.00,meteohub,2013-11-23 17:16:00,
2013-11-23 12:17:00,48.6,28.2,29.97,WNW,293,9.0,16.0,45,0.00,,,0.00,meteohub,2013-11-23 17:17:00,
2013-11-23 12:19:00,48.4,28.0,29.97,WNW,293,5.0,16.0,45,0.00,,,0.00,meteohub,2013-11-23 17:19:00,
2013-11-23 12:21:00,48.4,28.6,29.97,WNW,289,8.0,16.0,46,0.00,,,0.00,meteohub,2013-11-23 17:21:00,
2013-11-23 12:22:00,48.4,28.0,29.97,WNW,286,10.0,16.0,45,0.00,,,0.00,meteohub,2013-11-23 17:22:00,
2013-11-23 12:23:00,48.4,27.5,29.97,West,279,6.0,16.0,44,0.00,,,0.00,meteohub,2013-11-23 17:23:00,
2013-11-23 12:24:00,48.4,27.5,29.97,WNW,290,12.0,16.0,44,0.00,,,0.00,meteohub,2013-11-23 17:24:00,
2013-11-23 12:26:00,48.0,27.1,29.97,WNW,299,4.0,15.0,44,0.00,,,0.00,meteohub,2013-11-23 17:26:00,
2013-11-23 12:28:00,48.0,27.1,29.97,West,281,4.0,15.0,44,0.00,,,0.00,meteohub,2013-11-23 17:28:00,
2013-11-23 12:29:00,48.0,27.1,29.96,WNW,292,5.0,15.0,44,0.00,,,0.00,meteohub,2013-11-23 17:29:00,
2013-11-23 12:32:00,48.2,27.3,29.96,West,281,4.0,15.0,44,0.00,,,0.00,meteohub,2013-11-23 17:32:00,
2013-11-23 12:33:00,48.2,27.9,29.96,West,263,3.0,15.0,45,0.00,,,0.00,meteohub,2013-11-23 17:33:00,
2013-11-23 12:34:00,48.2,28.4,29.96,WNW,282,2.0,15.0,46,0.00,,,0.00,meteohub,2013-11-23 17:34:00,
2013-11-23 12:35:00,48.4,28.6,29.96,WNW,292,2.0,15.0,46,0.00,,,0.00,meteohub,2013-11-23 17:35:00,
2013-11-23 12:38:00,48.4,28.0,29.96,NW,305,3.0,15.0,45,0.00,,,0.00,meteohub,2013-11-23 17:38:00,
2013-11-23 12:39:00,48.2,27.3,29.96,WNW,294,1.0,15.0,44,0.00,,,0.00,meteohub,2013-11-23 17:39:00,
2013-11-23 12:43:00,48.4,28.0,29.96,WNW,291,9.0,11.0,45,0.00,,,0.00,meteohub,2013-11-23 17:43:00,
2013-11-23 12:44:00,48.2,27.3,29.96,WNW,286,4.0,11.0,44,0.00,,,0.00,meteohub,2013-11-23 17:44:00,
2013-11-23 12:48:00,47.8,26.4,29.96,WSW,249,13.0,13.0,43,0.00,,,0.00,meteohub,2013-11-23 17:48:00,
2013-11-23 12:49:00,47.7,25.7,29.96,NW,311,8.0,12.0,42,0.00,,,0.00,meteohub,2013-11-23 17:49:00,
2013-11-23 12:50:00,47.7,26.2,29.95,WNW,298,2.0,16.0,43,0.00,,,0.00,meteohub,2013-11-23 17:50:00,
2013-11-23 12:53:00,47.3,24.8,29.95,West,279,9.0,16.0,41,0.00,,,0.00,meteohub,2013-11-23 17:53:00,
2013-11-23 12:54:00,47.1,24.1,29.95,NW,317,5.0,16.0,40,0.00,,,0.00,meteohub,2013-11-23 17:54:00,
2013-11-23 12:56:00,47.1,24.1,29.95,SW,219,5.0,16.0,40,0.00,,,0.00,meteohub,2013-11-23 17:56:00,
2013-11-23 12:58:00,46.9,25.0,29.95,NW,304,8.0,16.0,42,0.00,,,0.00,meteohub,2013-11-23 17:58:00,
2013-11-23 12:59:00,46.9,25.0,29.95,West,271,2.0,16.0,42,0.00,,,0.00,meteohub,2013-11-23 17:59:00,
2013-11-23 13:00:00,47.1,25.7,29.96,WNW,289,7.0,16.0,43,0.00,,,0.00,meteohub,2013-11-23 18:00:00,
2013-11-23 13:01:00,47.1,25.7,29.96,NW,306,4.0,16.0,43,0.00,,,0.00,meteohub,2013-11-23 18:01:00,
2013-11-23 13:03:00,46.9,25.0,29.96,West,271,7.0,16.0,42,0.00,,,0.00,meteohub,2013-11-23 18:03:00,
2013-11-23 13:04:00,46.9,25.0,29.96,WNW,292,7.0,16.0,42,0.00,,,0.00,meteohub,2013-11-23 18:04:00,
2013-11-23 13:05:00,46.9,25.0,29.96,West,266,9.0,16.0,42,0.00,,,0.00,meteohub,2013-11-23 18:05:00,
2013-11-23 13:06:00,46.8,24.8,29.96,West,279,4.0,14.0,42,0.00,,,0.00,meteohub,2013-11-23 18:06:00,
2013-11-23 13:08:00,46.8,24.8,29.96,West,278,7.0,14.0,42,0.00,,,0.00,meteohub,2013-11-23 18:08:00,
2013-11-23 13:09:00,46.8,24.8,29.96,West,273,3.0,14.0,42,0.00,,,0.00,meteohub,2013-11-23 18:09:00,
2013-11-23 13:10:00,46.6,24.8,29.96,WNW,295,10.0,15.0,42,0.00,,,0.00,meteohub,2013-11-23 18:10:00,
2013-11-23 13:11:00,46.6,24.8,29.96,West,281,14.0,15.0,42,0.00,,,0.00,meteohub,2013-11-23 18:11:00,
2013-11-23 13:12:00,46.6,25.3,29.96,WNW,294,11.0,15.0,43,0.00,,,0.00,meteohub,2013-11-23 18:12:00,
2013-11-23 13:14:00,46.4,25.7,29.96,NNW,337,10.0,15.0,44,0.00,,,0.00,meteohub,2013-11-23 18:14:00,
2013-11-23 13:16:00,46.2,25.5,29.96,West,280,8.0,15.0,44,0.00,,,0.00,meteohub,2013-11-23 18:16:00,
2013-11-23 13:18:00,46.2,26.1,29.96,West,265,11.0,15.0,45,0.00,,,0.00,meteohub,2013-11-23 18:18:00,
2013-11-23 13:19:00,46.2,26.1,29.96,WNW,287,11.0,15.0,45,0.00,,,0.00,meteohub,2013-11-23 18:19:00,
2013-11-23 13:21:00,46.2,26.1,29.96,NNW,327,9.0,15.0,45,0.00,,,0.00,meteohub,2013-11-23 18:21:00,
2013-11-23 13:23:00,46.0,26.4,29.96,West,281,7.0,15.0,46,0.00,,,0.00,meteohub,2013-11-23 18:23:00,
2013-11-23 13:24:00,46.0,26.4,29.96,West,271,6.0,15.0,46,0.00,,,0.00,meteohub,2013-11-23 18:24:00,
2013-11-23 13:25:00,46.0,26.4,29.96,West,275,10.0,16.0,46,0.00,,,0.00,meteohub,2013-11-23 18:25:00,
2013-11-23 13:26:00,46.0,26.4,29.95,NW,314,6.0,16.0,46,0.00,,,0.00,meteohub,2013-11-23 18:26:00,
2013-11-23 13:27:00,45.9,26.2,29.96,West,264,8.0,16.0,46,0.00,,,0.00,meteohub,2013-11-23 18:27:00,
2013-11-23 13:28:00,45.9,26.2,29.95,West,281,8.0,16.0,46,0.00,,,0.00,meteohub,2013-11-23 18:28:00,
2013-11-23 13:29:00,45.9,26.2,29.95,West,264,9.0,16.0,46,0.00,,,0.00,meteohub,2013-11-23 18:29:00,
2013-11-23 13:30:00,45.9,26.2,29.95,NW,308,4.0,16.0,46,0.00,,,0.00,meteohub,2013-11-23 18:30:00,
2013-11-23 13:31:00,45.9,26.2,29.95,West,276,4.0,16.0,46,0.00,,,0.00,meteohub,2013-11-23 18:31:00,
2013-11-23 13:32:00,45.9,26.2,29.95,West,268,4.0,16.0,46,0.00,,,0.00,meteohub,2013-11-23 18:32:00,
2013-11-23 13:33:00,45.9,26.8,29.95,WNW,294,7.0,16.0,47,0.00,,,0.00,meteohub,2013-11-23 18:33:00,
2013-11-23 13:34:00,45.7,26.1,29.95,WNW,298,8.0,16.0,46,0.00,,,0.00,meteohub,2013-11-23 18:34:00,
2013-11-23 13:36:00,45.7,25.5,29.95,West,268,3.0,16.0,45,0.00,,,0.00,meteohub,2013-11-23 18:36:00,
2013-11-23 13:37:00,45.7,26.1,29.95,West,276,3.0,16.0,46,0.00,,,0.00,meteohub,2013-11-23 18:37:00,
2013-11-23 13:38:00,45.7,26.1,29.94,WNW,285,3.0,16.0,46,0.00,,,0.00,meteohub,2013-11-23 18:38:00,
2013-11-23 13:39:00,45.7,26.1,29.94,WNW,288,10.0,16.0,46,0.00,,,0.00,meteohub,2013-11-23 18:39:00,
2013-11-23 13:40:00,45.7,26.1,29.94,West,278,13.0,16.0,46,0.00,,,0.00,meteohub,2013-11-23 18:40:00,
2013-11-23 13:41:00,45.7,25.5,29.95,West,279,12.0,16.0,45,0.00,,,0.00,meteohub,2013-11-23 18:41:00,
2013-11-23 13:42:00,45.7,25.5,29.95,WNW,297,8.0,16.0,45,0.00,,,0.00,meteohub,2013-11-23 18:42:00,
2013-11-23 13:43:00,45.7,25.5,29.95,West,273,6.0,16.0,45,0.00,,,0.00,meteohub,2013-11-23 18:43:00,
2013-11-23 13:45:00,45.5,24.8,29.95,WNW,301,9.0,16.0,44,0.00,,,0.00,meteohub,2013-11-23 18:45:00,
2013-11-23 13:46:00,45.5,25.3,29.94,NW,321,9.0,16.0,45,0.00,,,0.00,meteohub,2013-11-23 18:46:00,
2013-11-23 13:47:00,45.7,25.5,29.94,WSW,258,4.0,16.0,45,0.00,,,0.00,meteohub,2013-11-23 18:47:00,
2013-11-23 13:48:00,45.7,25.5,29.94,WNW,291,8.0,16.0,45,0.00,,,0.00,meteohub,2013-11-23 18:48:00,
2013-11-23 13:49:00,45.7,25.5,29.94,West,264,7.0,16.0,45,0.00,,,0.00,meteohub,2013-11-23 18:49:00,
2013-11-23 13:51:00,45.7,26.1,29.94,West,266,6.0,15.0,46,0.00,,,0.00,meteohub,2013-11-23 18:51:00,
2013-11-23 13:53:00,45.7,26.1,29.94,West,275,7.0,15.0,46,0.00,,,0.00,meteohub,2013-11-23 18:53:00,
2013-11-23 13:54:00,45.7,26.1,29.94,WNW,290,7.0,15.0,46,0.00,,,0.00,meteohub,2013-11-23 18:54:00,
2013-11-23 13:56:00,45.7,26.1,29.94,WNW,296,9.0,15.0,46,0.00,,,0.00,meteohub,2013-11-23 18:56:00,
2013-11-23 13:57:00,45.7,26.1,29.94,West,271,7.0,15.0,46,0.00,,,0.00,meteohub,2013-11-23 18:57:00,
2013-11-23 13:58:00,45.9,26.2,29.94,WNW,282,9.0,15.0,46,0.00,,,0.00,meteohub,2013-11-23 18:58:00,
2013-11-23 13:59:00,45.9,26.8,29.94,NW,308,7.0,15.0,47,0.00,,,0.00,meteohub,2013-11-23 18:59:00,
2013-11-23 14:02:00,45.9,26.8,29.94,WNW,289,8.0,12.0,47,0.00,,,0.00,meteohub,2013-11-23 19:02:00,
2013-11-23 14:03:00,45.7,26.6,29.94,WNW,294,12.0,12.0,47,0.00,,,0.00,meteohub,2013-11-23 19:03:00,
2013-11-23 14:04:00,45.7,26.1,29.94,West,265,11.0,12.0,46,0.00,,,0.00,meteohub,2013-11-23 19:04:00,
2013-11-23 14:07:00,45.7,25.5,29.94,WNW,284,9.0,12.0,45,0.00,,,0.00,meteohub,2013-11-23 19:07:00,
2013-11-23 14:08:00,45.7,25.5,29.94,WNW,285,9.0,12.0,45,0.00,,,0.00,meteohub,2013-11-23 19:08:00,
2013-11-23 14:09:00,45.7,25.5,29.94,WNW,298,12.0,12.0,45,0.00,,,0.00,meteohub,2013-11-23 19:09:00,
2013-11-23 14:10:00,45.7,25.5,29.94,NNW,327,8.0,12.0,45,0.00,,,0.00,meteohub,2013-11-23 19:10:00,
2013-11-23 14:12:00,45.5,25.3,29.94,WSW,256,9.0,16.0,45,0.00,,,0.00,meteohub,2013-11-23 19:12:00,
2013-11-23 14:13:00,45.5,25.9,29.94,NW,309,7.0,16.0,46,0.00,,,0.00,meteohub,2013-11-23 19:13:00,
2013-11-23 14:14:00,45.5,25.9,29.94,West,262,6.0,16.0,46,0.00,,,0.00,meteohub,2013-11-23 19:14:00,
2013-11-23 14:15:00,45.5,26.4,29.94,West,272,4.0,16.0,47,0.00,,,0.00,meteohub,2013-11-23 19:15:00,
2013-11-23 14:17:00,45.7,26.1,29.94,NNW,342,10.0,16.0,46,0.00,,,0.00,meteohub,2013-11-23 19:17:00,
2013-11-23 14:19:00,45.7,26.1,29.94,WNW,285,6.0,16.0,46,0.00,,,0.00,meteohub,2013-11-23 19:19:00,
2013-11-23 14:20:00,45.7,26.1,29.94,WNW,295,5.0,16.0,46,0.00,,,0.00,meteohub,2013-11-23 19:20:00,
2013-11-23 14:23:00,45.5,25.9,29.94,WNW,302,8.0,16.0,46,0.00,,,0.00,meteohub,2013-11-23 19:23:00,
2013-11-23 14:24:00,45.5,25.9,29.94,West,280,6.0,16.0,46,0.00,,,0.00,meteohub,2013-11-23 19:24:00,
2013-11-23 14:25:00,45.5,25.9,29.94,WNW,282,4.0,16.0,46,0.00,,,0.00,meteohub,2013-11-23 19:25:00,
2013-11-23 14:26:00,45.5,26.4,29.94,West,276,4.0,15.0,47,0.00,,,0.00,meteohub,2013-11-23 19:26:00,
2013-11-23 14:27:00,45.5,26.4,29.94,WNW,288,10.0,15.0,47,0.00,,,0.00,meteohub,2013-11-23 19:27:00,
2013-11-23 14:28:00,45.5,26.4,29.94,WSW,252,7.0,15.0,47,0.00,,,0.00,meteohub,2013-11-23 19:28:00,
2013-11-23 14:29:00,45.3,26.2,29.94,West,259,7.0,15.0,47,0.00,,,0.00,meteohub,2013-11-23 19:29:00,
2013-11-23 14:31:00,45.3,26.2,29.94,West,280,6.0,13.0,47,0.00,,,0.00,meteohub,2013-11-23 19:31:00,
2013-11-23 14:33:00,45.3,26.8,29.94,WNW,293,8.0,13.0,48,0.00,,,0.00,meteohub,2013-11-23 19:33:00,
2013-11-23 14:34:00,45.3,26.2,29.94,WNW,285,8.0,13.0,47,0.00,,,0.00,meteohub,2013-11-23 19:34:00,
2013-11-23 14:36:00,45.3,26.8,29.94,WNW,295,7.0,13.0,48,0.00,,,0.00,meteohub,2013-11-23 19:36:00,
2013-11-23 14:37:00,45.3,26.8,29.94,West,271,9.0,13.0,48,0.00,,,0.00,meteohub,2013-11-23 19:37:00,
2013-11-23 14:39:00,45.3,26.2,29.94,West,275,7.0,13.0,47,0.00,,,0.00,meteohub,2013-11-23 19:39:00,
2013-11-23 14:40:00,45.3,26.2,29.94,NW,305,3.0,13.0,47,0.00,,,0.00,meteohub,2013-11-23 19:40:00,
2013-11-23 14:41:00,45.5,26.4,29.94,WSW,257,4.0,16.0,47,0.00,,,0.00,meteohub,2013-11-23 19:41:00,
2013-11-23 14:42:00,45.7,26.6,29.94,WNW,290,9.0,16.0,47,0.00,,,0.00,meteohub,2013-11-23 19:42:00,
2013-11-23 14:44:00,45.9,26.8,29.94,WNW,294,10.0,16.0,47,0.00,,,0.00,meteohub,2013-11-23 19:44:00,
2013-11-23 14:45:00,45.9,26.8,29.94,NW,304,5.0,16.0,47,0.00,,,0.00,meteohub,2013-11-23 19:45:00,
2013-11-23 14:46:00,45.9,26.8,29.94,West,264,9.0,16.0,47,0.00,,,0.00,meteohub,2013-11-23 19:46:00,
2013-11-23 14:47:00,45.9,26.8,29.94,WNW,294,2.0,16.0,47,0.00,,,0.00,meteohub,2013-11-23 19:47:00,
2013-11-23 14:48:00,45.9,26.2,29.94,WNW,298,5.0,16.0,46,0.00,,,0.00,meteohub,2013-11-23 19:48:00,
2013-11-23 14:49:00,45.9,25.7,29.94,WNW,284,10.0,16.0,45,0.00,,,0.00,meteohub,2013-11-23 19:49:00,
2013-11-23 14:50:00,45.7,26.1,29.94,WNW,284,7.0,16.0,46,0.00,,,0.00,meteohub,2013-11-23 19:50:00,
2013-11-23 14:51:00,45.7,26.1,29.94,WNW,294,5.0,16.0,46,0.00,,,0.00,meteohub,2013-11-23 19:51:00,
2013-11-23 14:52:00,45.7,26.6,29.94,WNW,292,3.0,16.0,47,0.00,,,0.00,meteohub,2013-11-23 19:52:00,
2013-11-23 14:53:00,45.7,26.1,29.94,WNW,290,4.0,16.0,46,0.00,,,0.00,meteohub,2013-11-23 19:53:00,
2013-11-23 14:54:00,45.7,25.5,29.94,WNW,300,9.0,16.0,45,0.00,,,0.00,meteohub,2013-11-23 19:54:00,
2013-11-23 14:56:00,45.5,24.8,29.94,WSW,248,7.0,13.0,44,0.00,,,0.00,meteohub,2013-11-23 19:56:00,
2013-11-23 14:57:00,45.5,24.8,29.94,WNW,294,7.0,13.0,44,0.00,,,0.00,meteohub,2013-11-23 19:57:00,
2013-11-23 15:00:00,45.7,25.0,29.94,NW,304,2.0,13.0,44,0.00,,,0.00,meteohub,2013-11-23 20:00:00,
2013-11-23 15:01:00,45.7,25.0,29.94,WNW,290,4.0,14.0,44,0.00,,,0.00,meteohub,2013-11-23 20:01:00,
2013-11-23 15:02:00,45.7,25.0,29.94,WSW,248,5.0,14.0,44,0.00,,,0.00,meteohub,2013-11-23 20:02:00,
2013-11-23 15:03:00,45.9,25.2,29.94,West,261,3.0,14.0,44,0.00,,,0.00,meteohub,2013-11-23 20:03:00,
2013-11-23 15:05:00,45.9,25.2,29.94,WNW,294,10.0,14.0,44,0.00,,,0.00,meteohub,2013-11-23 20:05:00,
2013-11-23 15:06:00,45.7,25.5,29.95,NW,304,8.0,15.0,45,0.00,,,0.00,meteohub,2013-11-23 20:06:00,
2013-11-23 15:07:00,45.7,25.5,29.95,NW,304,8.0,15.0,45,0.00,,,0.00,meteohub,2013-11-23 20:07:00,
2013-11-23 15:08:00,45.7,25.5,29.95,NW,313,10.0,15.0,45,0.00,,,0.00,meteohub,2013-11-23 20:08:00,
2013-11-23 15:10:00,45.7,25.5,29.94,WSW,239,3.0,15.0,45,0.00,,,0.00,meteohub,2013-11-23 20:10:00,
2013-11-23 15:12:00,45.7,26.1,29.94,West,269,8.0,18.0,46,0.00,,,0.00,meteohub,2013-11-23 20:12:00,
2013-11-23 15:13:00,45.7,25.5,29.94,WNW,290,8.0,18.0,45,0.00,,,0.00,meteohub,2013-11-23 20:13:00,
2013-11-23 15:14:00,45.7,25.5,29.94,WNW,289,4.0,18.0,45,0.00,,,0.00,meteohub,2013-11-23 20:14:00,
2013-11-23 15:16:00,45.7,26.1,29.95,WNW,291,4.0,18.0,46,0.00,,,0.00,meteohub,2013-11-23 20:16:00,
2013-11-23 15:17:00,45.3,24.6,29.94,West,281,7.0,18.0,44,0.00,,,0.00,meteohub,2013-11-23 20:17:00,
2013-11-23 15:18:00,45.3,25.2,29.95,WNW,298,7.0,18.0,45,0.00,,,0.00,meteohub,2013-11-23 20:18:00,
2013-11-23 15:19:00,45.3,25.7,29.95,SW,236,4.0,18.0,46,0.00,,,0.00,meteohub,2013-11-23 20:19:00,
2013-11-23 15:21:00,45.3,26.2,29.95,West,265,15.0,18.0,47,0.00,,,0.00,meteohub,2013-11-23 20:21:00,
2013-11-23 15:23:00,45.1,25.5,29.95,WNW,302,5.0,18.0,46,0.00,,,0.00,meteohub,2013-11-23 20:23:00,
2013-11-23 15:24:00,45.1,25.0,29.95,WNW,298,11.0,18.0,45,0.00,,,0.00,meteohub,2013-11-23 20:24:00,
2013-11-23 15:25:00,45.1,25.5,29.95,NW,319,9.0,16.0,46,0.00,,,0.00,meteohub,2013-11-23 20:25:00,
2013-11-23 15:26:00,45.1,25.5,29.94,West,281,4.0,16.0,46,0.00,,,0.00,meteohub,2013-11-23 20:26:00,
2013-11-23 15:28:00,45.0,25.3,29.94,West,276,8.0,16.0,46,0.00,,,0.00,meteohub,2013-11-23 20:28:00,
2013-11-23 15:29:00,45.1,25.5,29.94,WNW,290,7.0,16.0,46,0.00,,,0.00,meteohub,2013-11-23 20:29:00,
2013-11-23 15:30:00,45.0,25.3,29.94,West,277,6.0,16.0,46,0.00,,,0.00,meteohub,2013-11-23 20:30:00,
2013-11-23 15:31:00,45.0,25.3,29.95,WNW,294,8.0,16.0,46,0.00,,,0.00,meteohub,2013-11-23 20:31:00,
2013-11-23 15:33:00,45.0,25.9,29.95,West,274,8.0,16.0,47,0.00,,,0.00,meteohub,2013-11-23 20:33:00,
2013-11-23 15:34:00,45.0,25.9,29.95,NW,304,8.0,16.0,47,0.00,,,0.00,meteohub,2013-11-23 20:34:00,
2013-11-23 15:35:00,45.0,26.4,29.95,WNW,292,5.0,16.0,48,0.00,,,0.00,meteohub,2013-11-23 20:35:00,
2013-11-23 15:36:00,45.0,26.4,29.95,NW,304,11.0,15.0,48,0.00,,,0.00,meteohub,2013-11-23 20:36:00,
2013-11-23 15:38:00,45.0,25.3,29.95,WSW,242,6.0,15.0,46,0.00,,,0.00,meteohub,2013-11-23 20:38:00,
2013-11-23 15:40:00,45.0,25.3,29.95,WSW,254,10.0,15.0,46,0.00,,,0.00,meteohub,2013-11-23 20:40:00,
2013-11-23 15:41:00,44.8,24.8,29.95,WNW,290,9.0,14.0,45,0.00,,,0.00,meteohub,2013-11-23 20:41:00,
2013-11-23 15:42:00,44.8,24.8,29.95,WNW,303,8.0,14.0,45,0.00,,,0.00,meteohub,2013-11-23 20:42:00,
2013-11-23 15:43:00,44.8,24.8,29.95,West,277,10.0,14.0,45,0.00,,,0.00,meteohub,2013-11-23 20:43:00,
2013-11-23 15:45:00,44.8,24.3,29.95,WNW,298,8.0,15.0,44,0.00,,,0.00,meteohub,2013-11-23 20:45:00,
2013-11-23 15:46:00,44.8,24.8,29.94,West,281,7.0,15.0,45,0.00,,,0.00,meteohub,2013-11-23 20:46:00,
2013-11-23 15:47:00,44.8,24.8,29.94,West,272,9.0,15.0,45,0.00,,,0.00,meteohub,2013-11-23 20:47:00,
2013-11-23 15:49:00,44.6,24.6,29.95,WNW,299,8.0,15.0,45,0.00,,,0.00,meteohub,2013-11-23 20:49:00,
2013-11-23 15:50:00,44.6,24.6,29.94,WNW,288,3.0,16.0,45,0.00,,,0.00,meteohub,2013-11-23 20:50:00,
2013-11-23 15:51:00,44.6,24.6,29.95,WNW,283,11.0,16.0,45,0.00,,,0.00,meteohub,2013-11-23 20:51:00,
2013-11-23 15:52:00,44.4,24.4,29.94,NW,316,6.0,16.0,45,0.00,,,0.00,meteohub,2013-11-23 20:52:00,
2013-11-23 15:53:00,44.4,24.4,29.94,WNW,287,4.0,16.0,45,0.00,,,0.00,meteohub,2013-11-23 20:53:00,
2013-11-23 15:54:00,44.4,25.0,29.94,West,277,11.0,16.0,46,0.00,,,0.00,meteohub,2013-11-23 20:54:00,
2013-11-23 15:56:00,44.4,25.0,29.94,NW,311,6.0,16.0,46,0.00,,,0.00,meteohub,2013-11-23 20:56:00,
2013-11-23 15:57:00,44.4,25.0,29.94,WSW,256,3.0,16.0,46,0.00,,,0.00,meteohub,2013-11-23 20:57:00,
2013-11-23 15:58:00,44.4,25.0,29.94,West,271,8.0,16.0,46,0.00,,,0.00,meteohub,2013-11-23 20:58:00,
2013-11-23 16:00:00,44.4,25.0,29.94,WNW,293,9.0,16.0,46,0.00,,,0.00,meteohub,2013-11-23 21:00:00,
2013-11-23 16:01:00,44.2,24.8,29.94,West,272,7.0,13.0,46,0.00,,,0.00,meteohub,2013-11-23 21:01:00,
2013-11-23 16:02:00,44.2,24.8,29.94,WNW,294,5.0,13.0,46,0.00,,,0.00,meteohub,2013-11-23 21:02:00,
2013-11-23 16:03:00,44.2,24.8,29.94,West,274,3.0,13.0,46,0.00,,,0.00,meteohub,2013-11-23 21:03:00,
2013-11-23 16:05:00,44.2,25.3,29.94,WNW,291,7.0,13.0,47,0.00,,,0.00,meteohub,2013-11-23 21:05:00,
2013-11-23 16:06:00,44.2,25.7,29.95,WNW,296,2.0,11.0,48,0.00,,,0.00,meteohub,2013-11-23 21:06:00,
2013-11-23 16:08:00,44.2,25.7,29.95,West,260,6.0,11.0,48,0.00,,,0.00,meteohub,2013-11-23 21:08:00,
2013-11-23 16:11:00,44.1,25.7,29.94,WNW,302,7.0,11.0,48,0.00,,,0.00,meteohub,2013-11-23 21:11:00,
2013-11-23 16:13:00,44.1,25.7,29.94,West,275,2.0,11.0,48,0.00,,,0.00,meteohub,2013-11-23 21:13:00,
2013-11-23 16:14:00,44.1,26.1,29.94,WNW,286,10.0,11.0,49,0.00,,,0.00,meteohub,2013-11-23 21:14:00,
2013-11-23 16:16:00,43.9,25.5,29.94,NW,304,10.0,11.0,48,0.00,,,0.00,meteohub,2013-11-23 21:16:00,
2013-11-23 16:17:00,43.9,25.5,29.94,WNW,290,4.0,11.0,48,0.00,,,0.00,meteohub,2013-11-23 21:17:00,
2013-11-23 16:19:00,43.9,25.9,29.95,WNW,293,7.0,11.0,49,0.00,,,0.00,meteohub,2013-11-23 21:19:00,
2013-11-23 16:20:00,43.9,25.9,29.95,West,277,6.0,12.0,49,0.00,,,0.00,meteohub,2013-11-23 21:20:00,
2013-11-23 16:21:00,43.9,25.9,29.95,West,270,8.0,12.0,49,0.00,,,0.00,meteohub,2013-11-23 21:21:00,
2013-11-23 16:22:00,43.9,25.9,29.95,WNW,292,5.0,12.0,49,0.00,,,0.00,meteohub,2013-11-23 21:22:00,
2013-11-23 16:24:00,43.9,26.4,29.95,WNW,285,2.0,12.0,50,0.00,,,0.00,meteohub,2013-11-23 21:24:00,
2013-11-23 16:25:00,43.7,26.2,29.95,WNW,286,4.0,12.0,50,0.00,,,0.00,meteohub,2013-11-23 21:25:00,
2013-11-23 16:26:00,43.7,26.2,29.95,West,267,9.0,12.0,50,0.00,,,0.00,meteohub,2013-11-23 21:26:00,
2013-11-23 16:27:00,43.7,25.7,29.95,West,277,6.0,12.0,49,0.00,,,0.00,meteohub,2013-11-23 21:27:00,
2013-11-23 16:29:00,43.7,26.2,29.95,WNW,282,6.0,12.0,50,0.00,,,0.00,meteohub,2013-11-23 21:29:00,
2013-11-23 16:30:00,43.7,25.7,29.95,WSW,257,8.0,12.0,49,0.00,,,0.00,meteohub,2013-11-23 21:30:00,
2013-11-23 16:31:00,43.7,25.7,29.95,WNW,284,4.0,12.0,49,0.00,,,0.00,meteohub,2013-11-23 21:31:00,
2013-11-23 16:32:00,43.5,25.7,29.95,WNW,303,5.0,12.0,49,0.00,,,0.00,meteohub,2013-11-23 21:32:00,
2013-11-23 16:35:00,43.5,26.1,29.94,West,273,4.0,11.0,50,0.00,,,0.00,meteohub,2013-11-23 21:35:00,
2013-11-23 16:36:00,43.5,26.1,29.94,West,264,6.0,11.0,50,0.00,,,0.00,meteohub,2013-11-23 21:36:00,
2013-11-23 16:37:00,43.5,26.1,29.94,WNW,292,9.0,11.0,50,0.00,,,0.00,meteohub,2013-11-23 21:37:00,
2013-11-23 16:38:00,43.5,26.1,29.94,NW,310,9.0,11.0,50,0.00,,,0.00,meteohub,2013-11-23 21:38:00,
2013-11-23 16:41:00,43.3,25.9,29.95,WNW,293,9.0,12.0,50,0.00,,,0.00,meteohub,2013-11-23 21:41:00,
2013-11-23 16:42:00,43.3,26.4,29.95,WSW,254,5.0,12.0,51,0.00,,,0.00,meteohub,2013-11-23 21:42:00,
2013-11-23 16:44:00,43.3,26.4,29.95,West,279,3.0,12.0,51,0.00,,,0.00,meteohub,2013-11-23 21:44:00,
2013-11-23 16:46:00,43.3,26.4,29.95,West,276,4.0,12.0,51,0.00,,,0.00,meteohub,2013-11-23 21:46:00,
2013-11-23 16:47:00,43.3,27.0,29.95,West,277,7.0,12.0,52,0.00,,,0.00,meteohub,2013-11-23 21:47:00,
2013-11-23 16:48:00,43.3,27.0,29.95,West,272,10.0,12.0,52,0.00,,,0.00,meteohub,2013-11-23 21:48:00,
2013-11-23 16:50:00,43.3,27.0,29.95,WNW,295,9.0,12.0,52,0.00,,,0.00,meteohub,2013-11-23 21:50:00,
2013-11-23 16:51:00,43.3,27.0,29.95,West,277,6.0,12.0,52,0.00,,,0.00,meteohub,2013-11-23 21:51:00,
2013-11-23 16:52:00,43.2,26.8,29.95,West,279,4.0,12.0,52,0.00,,,0.00,meteohub,2013-11-23 21:52:00,
2013-11-23 16:53:00,43.2,26.8,29.96,WNW,302,9.0,12.0,52,0.00,,,0.00,meteohub,2013-11-23 21:53:00,
2013-11-23 16:55:00,43.2,27.1,29.96,SW,229,5.0,12.0,53,0.00,,,0.00,meteohub,2013-11-23 21:55:00,
2013-11-23 16:56:00,43.2,27.1,29.96,WSW,242,5.0,11.0,53,0.00,,,0.00,meteohub,2013-11-23 21:56:00,
2013-11-23 16:57:00,43.2,27.1,29.96,West,264,3.0,11.0,53,0.00,,,0.00,meteohub,2013-11-23 21:57:00,
2013-11-23 16:58:00,43.2,27.1,29.96,WNW,294,9.0,11.0,53,0.00,,,0.00,meteohub,2013-11-23 21:58:00,
2013-11-23 17:01:00,43.2,28.0,29.96,WSW,244,3.0,10.0,55,0.00,,,0.00,meteohub,2013-11-23 22:01:00,
2013-11-23 17:02:00,43.3,28.2,29.96,West,267,4.0,10.0,55,0.00,,,0.00,meteohub,2013-11-23 22:02:00,
2013-11-23 17:03:00,43.3,28.2,29.96,WNW,292,9.0,10.0,55,0.00,,,0.00,meteohub,2013-11-23 22:03:00,
2013-11-23 17:04:00,43.3,28.2,29.96,West,260,8.0,10.0,55,0.00,,,0.00,meteohub,2013-11-23 22:04:00,
2013-11-23 17:06:00,43.3,28.2,29.96,WNW,301,4.0,11.0,55,0.00,,,0.00,meteohub,2013-11-23 22:06:00,
2013-11-23 17:07:00,43.3,27.9,29.96,WNW,283,7.0,11.0,54,0.00,,,0.00,meteohub,2013-11-23 22:07:00,
2013-11-23 17:08:00,43.3,28.2,29.96,West,276,6.0,11.0,55,0.00,,,0.00,meteohub,2013-11-23 22:08:00,
2013-11-23 17:09:00,43.3,28.2,29.96,WNW,282,4.0,11.0,55,0.00,,,0.00,meteohub,2013-11-23 22:09:00,
2013-11-23 17:10:00,43.3,27.9,29.96,West,271,8.0,11.0,54,0.00,,,0.00,meteohub,2013-11-23 22:10:00,
2013-11-23 17:11:00,43.3,27.9,29.96,West,271,7.0,14.0,54,0.00,,,0.00,meteohub,2013-11-23 22:11:00,
2013-11-23 17:13:00,43.3,27.9,29.96,WNW,297,8.0,14.0,54,0.00,,,0.00,meteohub,2013-11-23 22:13:00,
2013-11-23 17:14:00,43.2,27.7,29.96,West,275,11.0,14.0,54,0.00,,,0.00,meteohub,2013-11-23 22:14:00,
2013-11-23 17:15:00,43.2,27.7,29.96,WSW,252,5.0,15.0,54,0.00,,,0.00,meteohub,2013-11-23 22:15:00,
2013-11-23 17:16:00,43.2,27.7,29.96,West,266,9.0,15.0,54,0.00,,,0.00,meteohub,2013-11-23 22:16:00,
2013-11-23 17:19:00,43.2,27.7,29.96,WNW,284,3.0,15.0,54,0.00,,,0.00,meteohub,2013-11-23 22:19:00,
2013-11-23 17:20:00,43.2,27.7,29.96,West,259,11.0,15.0,54,0.00,,,0.00,meteohub,2013-11-23 22:20:00,
2013-11-23 17:21:00,43.2,27.1,29.96,WNW,287,8.0,15.0,53,0.00,,,0.00,meteohub,2013-11-23 22:21:00,
2013-11-23 17:22:00,43.2,27.7,29.96,West,281,11.0,15.0,54,0.00,,,0.00,meteohub,2013-11-23 22:22:00,
2013-11-23 17:24:00,43.2,27.1,29.96,West,265,7.0,15.0,53,0.00,,,0.00,meteohub,2013-11-23 22:24:00,
2013-11-23 17:25:00,43.2,27.1,29.96,WNW,290,10.0,15.0,53,0.00,,,0.00,meteohub,2013-11-23 22:25:00,
2013-11-23 17:27:00,43.2,27.7,29.96,WSW,254,4.0,13.0,54,0.00,,,0.00,meteohub,2013-11-23 22:27:00,
2013-11-23 17:28:00,43.2,28.0,29.96,West,269,8.0,13.0,55,0.00,,,0.00,meteohub,2013-11-23 22:28:00,
2013-11-23 17:29:00,43.2,27.7,29.96,West,263,7.0,13.0,54,0.00,,,0.00,meteohub,2013-11-23 22:29:00,
2013-11-23 17:30:00,43.2,27.7,29.96,WNW,290,11.0,13.0,54,0.00,,,0.00,meteohub,2013-11-23 22:30:00,
2013-11-23 17:33:00,43.2,27.1,29.96,NW,306,7.0,13.0,53,0.00,,,0.00,meteohub,2013-11-23 22:33:00,
2013-11-23 17:34:00,43.0,27.0,29.96,WNW,288,13.0,13.0,53,0.00,,,0.00,meteohub,2013-11-23 22:34:00,
2013-11-23 17:35:00,43.0,27.0,29.96,WNW,290,7.0,13.0,53,0.00,,,0.00,meteohub,2013-11-23 22:35:00,
2013-11-23 17:36:00,43.0,26.6,29.96,WSW,250,8.0,12.0,52,0.00,,,0.00,meteohub,2013-11-23 22:36:00,
2013-11-23 17:38:00,43.0,27.0,29.96,WNW,290,5.0,12.0,53,0.00,,,0.00,meteohub,2013-11-23 22:38:00,
2013-11-23 17:39:00,43.0,27.0,29.96,West,277,4.0,12.0,53,0.00,,,0.00,meteohub,2013-11-23 22:39:00,
2013-11-23 17:40:00,43.0,26.6,29.96,West,277,4.0,12.0,52,0.00,,,0.00,meteohub,2013-11-23 22:40:00,
2013-11-23 17:41:00,42.8,27.3,29.96,WNW,286,4.0,13.0,54,0.00,,,0.00,meteohub,2013-11-23 22:41:00,
2013-11-23 17:42:00,42.8,27.3,29.96,WSW,246,7.0,13.0,54,0.00,,,0.00,meteohub,2013-11-23 22:42:00,
2013-11-23 17:43:00,42.8,27.3,29.96,West,280,3.0,13.0,54,0.00,,,0.00,meteohub,2013-11-23 22:43:00,
2013-11-23 17:44:00,42.8,27.7,29.96,West,261,6.0,13.0,55,0.00,,,0.00,meteohub,2013-11-23 22:44:00,
2013-11-23 17:45:00,42.8,27.7,29.96,West,266,4.0,13.0,55,0.00,,,0.00,meteohub,2013-11-23 22:45:00,
2013-11-23 17:46:00,42.8,27.7,29.96,West,262,6.0,13.0,55,0.00,,,0.00,meteohub,2013-11-23 22:46:00,
2013-11-23 17:47:00,42.8,27.7,29.96,West,268,2.0,13.0,55,0.00,,,0.00,meteohub,2013-11-23 22:47:00,
2013-11-23 17:48:00,42.8,27.7,29.96,West,279,3.0,13.0,55,0.00,,,0.00,meteohub,2013-11-23 22:48:00,
2013-11-23 17:50:00,42.8,27.3,29.96,SW,225,4.0,11.0,54,0.00,,,0.00,meteohub,2013-11-23 22:50:00,
2013-11-23 17:51:00,42.6,27.1,29.96,WNW,286,8.0,11.0,54,0.00,,,0.00,meteohub,2013-11-23 22:51:00,
2013-11-23 17:52:00,42.8,27.3,29.96,West,263,3.0,11.0,54,0.00,,,0.00,meteohub,2013-11-23 22:52:00,
2013-11-23 17:54:00,42.6,27.1,29.96,WSW,250,4.0,11.0,54,0.00,,,0.00,meteohub,2013-11-23 22:54:00,
2013-11-23 17:55:00,42.6,27.1,29.96,WSW,252,8.0,11.0,54,0.00,,,0.00,meteohub,2013-11-23 22:55:00,
2013-11-23 17:56:00,42.6,27.5,29.97,WNW,284,7.0,11.0,55,0.00,,,0.00,meteohub,2013-11-23 22:56:00,
2013-11-23 17:57:00,42.6,28.0,29.97,NW,306,5.0,11.0,56,0.00,,,0.00,meteohub,2013-11-23 22:57:00,
2013-11-23 17:59:00,42.6,28.0,29.96,WSW,248,9.0,11.0,56,0.00,,,0.00,meteohub,2013-11-23 22:59:00,
2013-11-23 18:00:00,42.6,28.0,29.96,West,261,8.0,11.0,56,0.00,,,0.00,meteohub,2013-11-23 23:00:00,
2013-11-23 18:01:00,42.6,27.5,29.96,WSW,257,7.0,11.0,55,0.00,,,0.00,meteohub,2013-11-23 23:01:00,
2013-11-23 18:02:00,42.6,27.5,29.96,SW,226,7.0,11.0,55,0.00,,,0.00,meteohub,2013-11-23 23:02:00,
2013-11-23 18:05:00,42.6,27.1,29.96,West,271,8.0,15.0,54,0.00,,,0.00,meteohub,2013-11-23 23:05:00,
2013-11-23 18:07:00,42.6,26.6,29.96,SW,227,5.0,15.0,53,0.00,,,0.00,meteohub,2013-11-23 23:07:00,
2013-11-23 18:08:00,42.6,27.1,29.96,West,268,8.0,15.0,54,0.00,,,0.00,meteohub,2013-11-23 23:08:00,
2013-11-23 18:09:00,42.6,27.1,29.96,WNW,288,5.0,15.0,54,0.00,,,0.00,meteohub,2013-11-23 23:09:00,
2013-11-23 18:10:00,42.6,27.5,29.96,WSW,240,8.0,15.0,55,0.00,,,0.00,meteohub,2013-11-23 23:10:00,
2013-11-23 18:12:00,42.6,26.6,29.96,West,279,8.0,15.0,53,0.00,,,0.00,meteohub,2013-11-23 23:12:00,
2013-11-23 18:13:00,42.6,26.6,29.96,SW,225,4.0,15.0,53,0.00,,,0.00,meteohub,2013-11-23 23:13:00,
2013-11-23 18:14:00,42.6,27.1,29.96,WNW,289,5.0,15.0,54,0.00,,,0.00,meteohub,2013-11-23 23:14:00,
2013-11-23 18:15:00,42.6,26.6,29.96,WSW,254,3.0,15.0,53,0.00,,,0.00,meteohub,2013-11-23 23:15:00,
2013-11-23 18:17:00,42.4,27.0,29.96,West,277,6.0,15.0,54,0.00,,,0.00,meteohub,2013-11-23 23:17:00,
2013-11-23 18:19:00,42.4,27.5,29.96,WSW,242,6.0,15.0,55,0.00,,,0.00,meteohub,2013-11-23 23:19:00,
2013-11-23 18:21:00,42.4,27.0,29.96,WSW,239,6.0,13.0,54,0.00,,,0.00,meteohub,2013-11-23 23:21:00,
2013-11-23 18:23:00,42.4,27.5,29.96,WSW,245,11.0,13.0,55,0.00,,,0.00,meteohub,2013-11-23 23:23:00,
2013-11-23 18:24:00,42.4,27.0,29.96,West,259,6.0,13.0,54,0.00,,,0.00,meteohub,2013-11-23 23:24:00,
2013-11-23 18:25:00,42.4,27.0,29.96,WSW,255,4.0,13.0,54,0.00,,,0.00,meteohub,2013-11-23 23:25:00,
2013-11-23 18:26:00,42.4,27.5,29.96,SW,234,4.0,13.0,55,0.00,,,0.00,meteohub,2013-11-23 23:26:00,
2013-11-23 18:27:00,42.4,27.5,29.96,West,275,4.0,13.0,55,0.00,,,0.00,meteohub,2013-11-23 23:27:00,
2013-11-23 18:28:00,42.4,27.5,29.96,SW,224,7.0,13.0,55,0.00,,,0.00,meteohub,2013-11-23 23:28:00,
2013-11-23 18:29:00,42.4,27.5,29.96,WSW,244,5.0,13.0,55,0.00,,,0.00,meteohub,2013-11-23 23:29:00,
2013-11-23 18:30:00,42.4,27.5,29.96,WSW,250,5.0,12.0,55,0.00,,,0.00,meteohub,2013-11-23 23:30:00,
2013-11-23 18:32:00,42.4,27.5,29.96,WSW,245,3.0,12.0,55,0.00,,,0.00,meteohub,2013-11-23 23:32:00,
2013-11-23 18:33:00,42.4,27.9,29.96,West,269,6.0,12.0,56,0.00,,,0.00,meteohub,2013-11-23 23:33:00,
2013-11-23 18:35:00,42.4,27.9,29.96,WSW,242,5.0,12.0,56,0.00,,,0.00,meteohub,2013-11-23 23:35:00,
2013-11-23 18:36:00,42.4,27.9,29.96,West,273,6.0,12.0,56,0.00,,,0.00,meteohub,2013-11-23 23:36:00,
2013-11-23 18:38:00,42.3,27.7,29.96,WSW,246,3.0,12.0,56,0.00,,,0.00,meteohub,2013-11-23 23:38:00,
2013-11-23 18:39:00,42.3,27.7,29.96,SW,234,3.0,12.0,56,0.00,,,0.00,meteohub,2013-11-23 23:39:00,
2013-11-23 18:40:00,42.3,28.0,29.96,WSW,240,6.0,12.0,57,0.00,,,0.00,meteohub,2013-11-23 23:40:00,
2013-11-23 18:41:00,42.3,27.7,29.96,SW,218,4.0,11.0,56,0.00,,,0.00,meteohub,2013-11-23 23:41:00,
2013-11-23 18:43:00,42.3,28.0,29.96,WSW,252,5.0,11.0,57,0.00,,,0.00,meteohub,2013-11-23 23:43:00,
2013-11-23 18:44:00,42.3,28.0,29.96,West,261,11.0,11.0,57,0.00,,,0.00,meteohub,2013-11-23 23:44:00,
2013-11-23 18:45:00,42.3,27.3,29.96,WSW,248,4.0,11.0,55,0.00,,,0.00,meteohub,2013-11-23 23:45:00,
2013-11-23 18:46:00,42.3,27.3,29.96,WNW,284,9.0,12.0,55,0.00,,,0.00,meteohub,2013-11-23 23:46:00,
2013-11-23 18:47:00,42.1,27.1,29.96,SW,233,5.0,12.0,55,0.00,,,0.00,meteohub,2013-11-23 23:47:00,
2013-11-23 18:48:00,42.1,27.5,29.96,WSW,252,10.0,12.0,56,0.00,,,0.00,meteohub,2013-11-23 23:48:00,
2013-11-23 18:50:00,42.1,27.5,29.96,West,265,7.0,12.0,56,0.00,,,0.00,meteohub,2013-11-23 23:50:00,
2013-11-23 18:51:00,42.1,27.1,29.96,WNW,284,6.0,12.0,55,0.00,,,0.00,meteohub,2013-11-23 23:51:00,
2013-11-23 18:52:00,42.1,27.1,29.96,West,265,7.0,12.0,55,0.00,,,0.00,meteohub,2013-11-23 23:52:00,
2013-11-23 18:54:00,42.1,27.1,29.96,WNW,299,4.0,12.0,55,0.00,,,0.00,meteohub,2013-11-23 23:54:00,
2013-11-23 18:55:00,42.1,27.1,29.96,NW,305,8.0,12.0,55,0.00,,,0.00,meteohub,2013-11-23 23:55:00,
2013-11-23 18:56:00,41.9,27.0,29.96,WSW,254,5.0,14.0,55,0.00,,,0.00,meteohub,2013-11-23 23:56:00,
2013-11-23 18:57:00,41.9,27.0,29.96,SW,228,9.0,14.0,55,0.00,,,0.00,meteohub,2013-11-23 23:57:00,
2013-11-23 18:59:00,41.9,27.0,29.96,West,259,6.0,14.0,55,0.00,,,0.00,meteohub,2013-11-23 23:59:00,
2013-11-23 19:00:00,41.7,26.8,29.96,West,271,8.0,14.0,55,0.00,,,0.00,meteohub,2013-11-24 00:00:00,
2013-11-23 19:01:00,41.7,26.2,29.96,WNW,288,5.0,14.0,54,0.00,,,0.00,meteohub,2013-11-24 00:01:00,
2013-11-23 19:02:00,41.7,26.2,29.96,West,278,6.0,14.0,54,0.00,,,0.00,meteohub,2013-11-24 00:02:00,
2013-11-23 19:04:00,41.7,26.2,29.96,West,264,4.0,14.0,54,0.00,,,0.00,meteohub,2013-11-24 00:04:00,
2013-11-23 19:05:00,41.7,26.2,29.96,WSW,257,3.0,14.0,54,0.00,,,0.00,meteohub,2013-11-24 00:05:00,
2013-11-23 19:06:00,41.5,26.6,29.96,WNW,292,5.0,14.0,55,0.00,,,0.00,meteohub,2013-11-24 00:06:00,
2013-11-23 19:07:00,41.7,26.8,29.96,West,265,4.0,14.0,55,0.00,,,0.00,meteohub,2013-11-24 00:07:00,
2013-11-23 19:08:00,41.5,26.6,29.96,West,274,16.0,16.0,55,0.00,,,0.00,meteohub,2013-11-24 00:08:00,
2013-11-23 19:10:00,41.5,26.6,29.96,WSW,245,3.0,14.0,55,0.00,,,0.00,meteohub,2013-11-24 00:10:00,
2013-11-23 19:12:00,41.5,26.6,29.96,West,275,8.0,16.0,55,0.00,,,0.00,meteohub,2013-11-24 00:12:00,
2013-11-23 19:13:00,41.5,27.0,29.96,WSW,248,2.0,16.0,56,0.00,,,0.00,meteohub,2013-11-24 00:13:00,
2013-11-23 19:15:00,41.5,26.6,29.96,WSW,238,4.0,16.0,55,0.00,,,0.00,meteohub,2013-11-24 00:15:00,
2013-11-23 19:17:00,41.5,26.6,29.96,West,270,9.0,16.0,55,0.00,,,0.00,meteohub,2013-11-24 00:17:00,
2013-11-23 19:18:00,41.5,26.1,29.96,WNW,300,11.0,16.0,54,0.00,,,0.00,meteohub,2013-11-24 00:18:00,
2013-11-23 19:19:00,41.5,26.1,29.96,WNW,298,10.0,16.0,54,0.00,,,0.00,meteohub,2013-11-24 00:19:00,
2013-11-23 19:20:00,41.5,25.7,29.96,WNW,282,7.0,16.0,53,0.00,,,0.00,meteohub,2013-11-24 00:20:00,
2013-11-23 19:21:00,41.5,26.1,29.96,West,268,10.0,16.0,54,0.00,,,0.00,meteohub,2013-11-24 00:21:00,
2013-11-23 19:23:00,41.5,25.7,29.96,WNW,292,11.0,16.0,53,0.00,,,0.00,meteohub,2013-11-24 00:23:00,
2013-11-23 19:24:00,41.5,26.1,29.96,West,277,6.0,16.0,54,0.00,,,0.00,meteohub,2013-11-24 00:24:00,
2013-11-23 19:25:00,41.5,26.1,29.96,WNW,284,4.0,15.0,54,0.00,,,0.00,meteohub,2013-11-24 00:25:00,
2013-11-23 19:26:00,41.5,25.7,29.96,WNW,292,9.0,15.0,53,0.00,,,0.00,meteohub,2013-11-24 00:26:00,
2013-11-23 19:28:00,41.5,25.7,29.96,West,275,8.0,15.0,53,0.00,,,0.00,meteohub,2013-11-24 00:28:00,
2013-11-23 19:29:00,41.5,25.7,29.96,WNW,285,11.0,15.0,53,0.00,,,0.00,meteohub,2013-11-24 00:29:00,
2013-11-23 19:31:00,41.5,25.2,29.96,West,279,4.0,15.0,52,0.00,,,0.00,meteohub,2013-11-24 00:31:00,
2013-11-23 19:32:00,41.5,25.2,29.96,WNW,284,8.0,15.0,52,0.00,,,0.00,meteohub,2013-11-24 00:32:00,
2013-11-23 19:33:00,41.5,25.2,29.96,West,275,7.0,15.0,52,0.00,,,0.00,meteohub,2013-11-24 00:33:00,
2013-11-23 19:34:00,41.5,25.2,29.96,West,279,4.0,15.0,52,0.00,,,0.00,meteohub,2013-11-24 00:34:00,
2013-11-23 19:37:00,41.5,25.2,29.96,WNW,287,5.0,15.0,52,0.00,,,0.00,meteohub,2013-11-24 00:37:00,
2013-11-23 19:38:00,41.5,24.8,29.96,West,267,3.0,15.0,51,0.00,,,0.00,meteohub,2013-11-24 00:38:00,
2013-11-23 19:39:00,41.5,24.8,29.96,West,274,8.0,15.0,51,0.00,,,0.00,meteohub,2013-11-24 00:39:00,
2013-11-23 19:42:00,41.5,24.8,29.96,WSW,254,5.0,15.0,51,0.00,,,0.00,meteohub,2013-11-24 00:42:00,
2013-11-23 19:43:00,41.5,24.8,29.96,WNW,296,10.0,15.0,51,0.00,,,0.00,meteohub,2013-11-24 00:43:00,
2013-11-23 19:44:00,41.5,24.3,29.96,West,281,8.0,15.0,50,0.00,,,0.00,meteohub,2013-11-24 00:44:00,
2013-11-23 19:45:00,41.5,24.3,29.96,West,269,14.0,15.0,50,0.00,,,0.00,meteohub,2013-11-24 00:45:00,
2013-11-23 19:48:00,41.5,23.7,29.96,West,271,16.0,17.0,49,0.00,,,0.00,meteohub,2013-11-24 00:48:00,
2013-11-23 19:49:00,41.5,23.7,29.96,WNW,301,9.0,17.0,49,0.00,,,0.00,meteohub,2013-11-24 00:49:00,
2013-11-23 19:50:00,41.5,23.7,29.96,West,261,9.0,17.0,49,0.00,,,0.00,meteohub,2013-11-24 00:50:00,
2013-11-23 19:51:00,41.7,23.9,29.96,West,279,7.0,19.0,49,0.00,,,0.00,meteohub,2013-11-24 00:51:00,
2013-11-23 19:54:00,41.7,23.9,29.96,NW,308,11.0,19.0,49,0.00,,,0.00,meteohub,2013-11-24 00:54:00,
2013-11-23 19:55:00,41.7,23.5,29.96,West,260,9.0,19.0,48,0.00,,,0.00,meteohub,2013-11-24 00:55:00,
2013-11-23 19:56:00,41.7,23.5,29.96,WNW,291,11.0,19.0,48,0.00,,,0.00,meteohub,2013-11-24 00:56:00,
2013-11-23 19:58:00,41.7,23.9,29.96,WSW,256,13.0,19.0,49,0.00,,,0.00,meteohub,2013-11-24 00:58:00,
2013-11-23 19:59:00,41.7,23.9,29.96,WNW,285,15.0,19.0,49,0.00,,,0.00,meteohub,2013-11-24 00:59:00,
2013-11-23 20:00:00,41.7,23.5,29.96,WNW,282,12.0,19.0,48,0.00,,,0.00,meteohub,2013-11-24 01:00:00,
2013-11-23 20:01:00,41.7,23.5,29.96,West,267,11.0,19.0,48,0.00,,,0.00,meteohub,2013-11-24 01:01:00,
2013-11-23 20:02:00,41.7,23.5,29.96,West,262,9.0,19.0,48,0.00,,,0.00,meteohub,2013-11-24 01:02:00,
2013-11-23 20:03:00,41.7,23.5,29.96,West,263,9.0,19.0,48,0.00,,,0.00,meteohub,2013-11-24 01:03:00,
2013-11-23 20:04:00,41.7,23.5,29.96,WNW,288,9.0,19.0,48,0.00,,,0.00,meteohub,2013-11-24 01:04:00,
2013-11-23 20:05:00,41.7,23.5,29.96,NW,323,5.0,18.0,48,0.00,,,0.00,meteohub,2013-11-24 01:05:00,
2013-11-23 20:06:00,41.7,23.5,29.96,WNW,294,9.0,18.0,48,0.00,,,0.00,meteohub,2013-11-24 01:06:00,
2013-11-23 20:08:00,41.7,23.5,29.96,WSW,238,13.0,18.0,48,0.00,,,0.00,meteohub,2013-11-24 01:08:00,
2013-11-23 20:09:00,41.7,23.0,29.96,West,274,14.0,18.0,47,0.00,,,0.00,meteohub,2013-11-24 01:09:00,
2013-11-23 20:10:00,41.7,23.5,29.96,WNW,290,16.0,18.0,48,0.00,,,0.00,meteohub,2013-11-24 01:10:00,
2013-11-23 20:11:00,41.7,23.5,29.96,WNW,288,5.0,18.0,48,0.00,,,0.00,meteohub,2013-11-24 01:11:00,
2013-11-23 20:13:00,41.5,23.4,29.96,WNW,302,4.0,18.0,48,0.00,,,0.00,meteohub,2013-11-24 01:13:00,
2013-11-23 20:14:00,41.5,23.7,29.96,WNW,288,11.0,18.0,49,0.00,,,0.00,meteohub,2013-11-24 01:14:00,
2013-11-23 20:15:00,41.5,23.7,29.96,WNW,285,11.0,18.0,49,0.00,,,0.00,meteohub,2013-11-24 01:15:00,
2013-11-23 20:17:00,41.5,23.4,29.96,WNW,283,6.0,18.0,48,0.00,,,0.00,meteohub,2013-11-24 01:17:00,
2013-11-23 20:18:00,41.5,23.7,29.96,West,273,4.0,18.0,49,0.00,,,0.00,meteohub,2013-11-24 01:18:00,
2013-11-23 20:20:00,41.5,23.7,29.96,West,277,9.0,18.0,49,0.00,,,0.00,meteohub,2013-11-24 01:20:00,
2013-11-23 20:21:00,41.5,23.4,29.96,WNW,282,4.0,18.0,48,0.00,,,0.00,meteohub,2013-11-24 01:21:00,
2013-11-23 20:23:00,41.5,23.4,29.96,West,267,14.0,18.0,48,0.00,,,0.00,meteohub,2013-11-24 01:23:00,
2013-11-23 20:24:00,41.5,23.7,29.96,West,276,10.0,18.0,49,0.00,,,0.00,meteohub,2013-11-24 01:24:00,
2013-11-23 20:25:00,41.4,23.7,29.96,West,259,9.0,18.0,49,0.00,,,0.00,meteohub,2013-11-24 01:25:00,
2013-11-23 20:26:00,41.4,24.1,29.97,West,272,9.0,18.0,50,0.00,,,0.00,meteohub,2013-11-24 01:26:00,
2013-11-23 20:28:00,41.4,23.2,29.97,NW,311,9.0,18.0,48,0.00,,,0.00,meteohub,2013-11-24 01:28:00,
2013-11-23 20:29:00,41.4,23.2,29.96,NW,309,10.0,18.0,48,0.00,,,0.00,meteohub,2013-11-24 01:29:00,
2013-11-23 20:31:00,41.4,23.2,29.97,WNW,284,18.0,19.0,48,0.00,,,0.00,meteohub,2013-11-24 01:31:00,
2013-11-23 20:32:00,41.4,23.7,29.96,West,277,18.0,19.0,49,0.00,,,0.00,meteohub,2013-11-24 01:32:00,
2013-11-23 20:33:00,41.4,23.2,29.97,WNW,300,9.0,19.0,48,0.00,,,0.00,meteohub,2013-11-24 01:33:00,
2013-11-23 20:34:00,41.4,23.2,29.97,WNW,294,9.0,19.0,48,0.00,,,0.00,meteohub,2013-11-24 01:34:00,
2013-11-23 20:36:00,41.4,23.2,29.97,NW,304,12.0,22.0,48,0.00,,,0.00,meteohub,2013-11-24 01:36:00,
2013-11-23 20:37:00,41.4,23.2,29.97,WNW,282,10.0,22.0,48,0.00,,,0.00,meteohub,2013-11-24 01:37:00,
2013-11-23 20:38:00,41.4,23.7,29.98,WSW,257,3.0,22.0,49,0.00,,,0.00,meteohub,2013-11-24 01:38:00,
2013-11-23 20:39:00,41.4,24.1,29.98,West,280,4.0,22.0,50,0.00,,,0.00,meteohub,2013-11-24 01:39:00,
2013-11-23 20:40:00,41.4,24.1,29.98,WNW,291,14.0,22.0,50,0.00,,,0.00,meteohub,2013-11-24 01:40:00,
2013-11-23 20:42:00,41.0,24.3,29.97,WNW,293,11.0,22.0,51,0.00,,,0.00,meteohub,2013-11-24 01:42:00,
2013-11-23 20:43:00,40.8,24.6,29.98,WNW,296,17.0,22.0,52,0.00,,,0.00,meteohub,2013-11-24 01:43:00,
2013-11-23 20:45:00,40.6,24.4,29.98,SW,232,11.0,22.0,52,0.00,,,0.00,meteohub,2013-11-24 01:45:00,
2013-11-23 20:47:00,40.5,24.6,29.98,NW,306,8.0,22.0,53,0.00,,,0.00,meteohub,2013-11-24 01:47:00,
2013-11-23 20:48:00,40.5,24.6,29.98,WNW,297,10.0,22.0,53,0.00,,,0.00,meteohub,2013-11-24 01:48:00,
2013-11-23 20:50:00,40.3,24.4,29.98,WNW,282,9.0,22.0,53,0.00,,,0.00,meteohub,2013-11-24 01:50:00,
2013-11-23 20:52:00,40.1,24.8,29.98,NW,306,15.0,18.0,54,0.00,,,0.00,meteohub,2013-11-24 01:52:00,
2013-11-23 20:53:00,39.9,24.6,29.98,West,271,8.0,18.0,54,0.00,,,0.00,meteohub,2013-11-24 01:53:00,
2013-11-23 20:55:00,39.9,24.3,29.98,WNW,287,18.0,18.0,53,0.00,,,0.00,meteohub,2013-11-24 01:55:00,
2013-11-23 20:56:00,39.9,24.3,29.98,West,273,9.0,17.0,53,0.00,,,0.00,meteohub,2013-11-24 01:56:00,
2013-11-23 20:58:00,39.7,24.1,29.98,WNW,289,11.0,17.0,53,0.00,,,0.00,meteohub,2013-11-24 01:58:00,
2013-11-23 20:59:00,39.7,24.1,29.98,NW,307,10.0,17.0,53,0.00,,,0.00,meteohub,2013-11-24 01:59:00,
2013-11-23 21:00:00,39.7,24.1,29.98,West,279,25.0,25.0,53,0.00,,,0.00,meteohub,2013-11-24 02:00:00,
2013-11-23 21:01:00,39.7,24.1,29.98,West,269,10.0,18.0,53,0.00,,,0.00,meteohub,2013-11-24 02:01:00,
2013-11-23 21:02:00,39.7,24.1,29.98,NW,318,9.0,18.0,53,0.00,,,0.00,meteohub,2013-11-24 02:02:00,
2013-11-23 21:03:00,39.7,24.1,29.98,NW,304,10.0,18.0,53,0.00,,,0.00,meteohub,2013-11-24 02:03:00,
2013-11-23 21:04:00,39.7,23.5,29.98,WNW,302,10.0,18.0,52,0.00,,,0.00,meteohub,2013-11-24 02:04:00,
2013-11-23 21:05:00,39.7,23.2,29.98,West,271,9.0,25.0,51,0.00,,,0.00,meteohub,2013-11-24 02:05:00,
2013-11-23 21:07:00,39.7,23.2,29.98,WSW,243,5.0,25.0,51,0.00,,,0.00,meteohub,2013-11-24 02:07:00,
2013-11-23 21:08:00,39.6,23.4,29.98,WNW,286,6.0,25.0,52,0.00,,,0.00,meteohub,2013-11-24 02:08:00,
2013-11-23 21:09:00,39.6,23.4,29.98,West,273,7.0,25.0,52,0.00,,,0.00,meteohub,2013-11-24 02:09:00,
2013-11-23 21:11:00,39.6,23.9,29.98,WNW,290,13.0,25.0,53,0.00,,,0.00,meteohub,2013-11-24 02:11:00,
2013-11-23 21:13:00,39.6,23.0,29.98,WNW,300,8.0,25.0,51,0.00,,,0.00,meteohub,2013-11-24 02:13:00,
2013-11-23 21:14:00,39.4,23.2,29.98,West,272,13.0,25.0,52,0.00,,,0.00,meteohub,2013-11-24 02:14:00,
2013-11-23 21:15:00,39.4,22.8,29.98,West,273,9.0,25.0,51,0.00,,,0.00,meteohub,2013-11-24 02:15:00,
2013-11-23 21:16:00,39.4,22.8,29.98,WNW,300,13.0,25.0,51,0.00,,,0.00,meteohub,2013-11-24 02:16:00,
2013-11-23 21:18:00,39.4,23.2,29.98,SSW,206,7.0,25.0,52,0.00,,,0.00,meteohub,2013-11-24 02:18:00,
2013-11-23 21:19:00,39.4,23.2,29.98,WNW,286,11.0,25.0,52,0.00,,,0.00,meteohub,2013-11-24 02:19:00,
2013-11-23 21:20:00,39.2,23.0,29.98,West,261,7.0,25.0,52,0.00,,,0.00,meteohub,2013-11-24 02:20:00,
2013-11-23 21:21:00,39.2,23.0,29.98,West,267,12.0,23.0,52,0.00,,,0.00,meteohub,2013-11-24 02:21:00,
2013-11-23 21:23:00,39.2,23.0,29.98,WNW,299,8.0,23.0,52,0.00,,,0.00,meteohub,2013-11-24 02:23:00,
2013-11-23 21:24:00,39.0,22.8,29.98,West,271,9.0,23.0,52,0.00,,,0.00,meteohub,2013-11-24 02:24:00,
2013-11-23 21:25:00,39.0,22.5,29.98,West,260,9.0,19.0,51,0.00,,,0.00,meteohub,2013-11-24 02:25:00,
2013-11-23 21:26:00,39.0,22.5,29.98,West,277,7.0,19.0,51,0.00,,,0.00,meteohub,2013-11-24 02:26:00,
2013-11-23 21:29:00,39.0,21.9,29.98,West,272,6.0,19.0,50,0.00,,,0.00,meteohub,2013-11-24 02:29:00,
2013-11-23 21:30:00,39.0,21.9,29.99,NW,306,5.0,19.0,50,0.00,,,0.00,meteohub,2013-11-24 02:30:00,
2013-11-23 21:32:00,39.0,21.6,29.98,West,277,15.0,19.0,49,0.00,,,0.00,meteohub,2013-11-24 02:32:00,
2013-11-23 21:34:00,39.0,21.9,29.99,NW,310,12.0,19.0,50,0.00,,,0.00,meteohub,2013-11-24 02:34:00,
2013-11-23 21:35:00,39.0,21.9,29.99,West,267,10.0,19.0,50,0.00,,,0.00,meteohub,2013-11-24 02:35:00,
2013-11-23 21:36:00,39.0,21.6,29.99,WNW,298,5.0,20.0,49,0.00,,,0.00,meteohub,2013-11-24 02:36:00,
2013-11-23 21:37:00,38.8,21.4,29.99,WNW,291,13.0,20.0,49,0.00,,,0.00,meteohub,2013-11-24 02:37:00,
2013-11-23 21:39:00,38.8,20.8,29.99,WNW,286,3.0,20.0,48,0.00,,,0.00,meteohub,2013-11-24 02:39:00,
2013-11-23 21:40:00,38.8,20.8,29.99,WNW,294,4.0,20.0,48,0.00,,,0.00,meteohub,2013-11-24 02:40:00,
2013-11-23 21:42:00,38.8,21.4,29.99,WNW,288,9.0,20.0,49,0.00,,,0.00,meteohub,2013-11-24 02:42:00,
2013-11-23 21:44:00,38.7,21.2,29.99,NW,313,4.0,20.0,49,0.00,,,0.00,meteohub,2013-11-24 02:44:00,
2013-11-23 21:45:00,38.7,21.6,29.99,NW,309,8.0,20.0,50,0.00,,,0.00,meteohub,2013-11-24 02:45:00,
2013-11-23 21:47:00,38.7,22.1,29.99,NW,318,5.0,20.0,51,0.00,,,0.00,meteohub,2013-11-24 02:47:00,
2013-11-23 21:50:00,38.5,21.9,29.99,WNW,288,5.0,20.0,51,0.00,,,0.00,meteohub,2013-11-24 02:50:00,
2013-11-23 21:51:00,38.5,21.9,29.99,WNW,285,4.0,19.0,51,0.00,,,0.00,meteohub,2013-11-24 02:51:00,
2013-11-23 21:52:00,38.5,21.9,29.99,West,263,3.0,19.0,51,0.00,,,0.00,meteohub,2013-11-24 02:52:00,
2013-11-23 21:55:00,38.3,21.7,29.99,WNW,284,10.0,16.0,51,0.00,,,0.00,meteohub,2013-11-24 02:55:00,
2013-11-23 21:56:00,38.1,21.6,29.99,NW,309,5.0,16.0,51,0.00,,,0.00,meteohub,2013-11-24 02:56:00,
2013-11-23 21:57:00,38.1,21.6,29.99,West,271,6.0,16.0,51,0.00,,,0.00,meteohub,2013-11-24 02:57:00,
2013-11-23 22:01:00,38.1,21.6,29.99,West,274,7.0,13.0,51,0.00,,,0.00,meteohub,2013-11-24 03:01:00,
2013-11-23 22:02:00,37.9,21.4,29.99,WNW,285,8.0,13.0,51,0.00,,,0.00,meteohub,2013-11-24 03:02:00,
2013-11-23 22:03:00,37.9,21.4,29.99,NW,307,10.0,13.0,51,0.00,,,0.00,meteohub,2013-11-24 03:03:00,
2013-11-23 22:07:00,37.9,21.9,29.99,WNW,292,3.0,11.0,52,0.00,,,0.00,meteohub,2013-11-24 03:07:00,
2013-11-23 22:08:00,37.9,21.4,30.00,WNW,291,9.0,11.0,51,0.00,,,0.00,meteohub,2013-11-24 03:08:00,
2013-11-23 22:12:00,37.9,21.9,30.00,WNW,298,13.0,13.0,52,0.00,,,0.00,meteohub,2013-11-24 03:12:00,
2013-11-23 22:13:00,37.8,21.7,30.00,WSW,256,10.0,12.0,52,0.00,,,0.00,meteohub,2013-11-24 03:13:00,
2013-11-23 22:18:00,37.8,22.1,30.00,NE,42,5.0,14.0,53,0.00,,,0.00,meteohub,2013-11-24 03:18:00,
2013-11-23 22:19:00,37.6,22.5,30.00,South,190,2.0,14.0,54,0.00,,,0.00,meteohub,2013-11-24 03:19:00,
2013-11-23 22:23:00,36.9,23.0,30.01,West,270,8.0,15.0,57,0.00,,,0.00,meteohub,2013-11-24 03:23:00,
2013-11-23 22:24:00,36.9,23.5,30.01,WSW,250,5.0,15.0,58,0.00,,,0.00,meteohub,2013-11-24 03:24:00,
2013-11-23 22:28:00,36.1,23.2,30.01,WNW,291,7.0,15.0,59,0.00,,,0.00,meteohub,2013-11-24 03:28:00,
2013-11-23 22:29:00,36.1,23.2,30.01,NW,324,8.0,15.0,59,0.00,,,0.00,meteohub,2013-11-24 03:29:00,
2013-11-23 22:30:00,36.1,23.2,30.01,West,277,4.0,15.0,59,0.00,,,0.00,meteohub,2013-11-24 03:30:00,
2013-11-23 22:33:00,36.0,23.4,30.02,West,275,4.0,13.0,60,0.00,,,0.00,meteohub,2013-11-24 03:33:00,
2013-11-23 22:34:00,36.0,23.4,30.02,WSW,254,2.0,13.0,60,0.00,,,0.00,meteohub,2013-11-24 03:34:00,
2013-11-23 22:35:00,36.0,23.9,30.02,West,278,7.0,13.0,61,0.00,,,0.00,meteohub,2013-11-24 03:35:00,
2013-11-23 22:38:00,35.6,23.9,30.02,WNW,285,4.0,13.0,62,0.00,,,0.00,meteohub,2013-11-24 03:38:00,
2013-11-23 22:39:00,35.6,23.9,30.02,WNW,294,9.0,13.0,62,0.00,,,0.00,meteohub,2013-11-24 03:39:00,
2013-11-23 22:40:00,35.6,23.9,30.02,WNW,289,7.0,13.0,62,0.00,,,0.00,meteohub,2013-11-24 03:40:00,
2013-11-23 22:42:00,35.4,23.7,30.01,WSW,253,9.0,11.0,62,0.00,,,0.00,meteohub,2013-11-24 03:42:00,
2013-11-23 22:44:00,35.2,23.5,30.02,West,273,6.0,11.0,62,0.00,,,0.00,meteohub,2013-11-24 03:44:00,
2013-11-23 22:45:00,35.2,23.5,30.02,WNW,301,11.0,11.0,62,0.00,,,0.00,meteohub,2013-11-24 03:45:00,
2013-11-23 22:46:00,35.2,23.5,30.02,North,0,3.0,11.0,62,0.00,,,0.00,meteohub,2013-11-24 03:46:00,
2013-11-23 22:49:00,35.1,23.4,30.02,WNW,284,7.0,11.0,62,0.00,,,0.00,meteohub,2013-11-24 03:49:00,
2013-11-23 22:50:00,35.1,23.4,30.02,NW,322,11.0,11.0,62,0.00,,,0.00,meteohub,2013-11-24 03:50:00,
2013-11-23 22:52:00,35.1,23.4,30.02,WSW,251,7.0,14.0,62,0.00,,,0.00,meteohub,2013-11-24 03:52:00,
2013-11-23 22:54:00,35.1,23.4,30.02,NW,304,8.0,14.0,62,0.00,,,0.00,meteohub,2013-11-24 03:54:00,
2013-11-23 22:55:00,35.1,23.4,30.02,WNW,294,8.0,14.0,62,0.00,,,0.00,meteohub,2013-11-24 03:55:00,
2013-11-23 22:56:00,35.1,23.4,30.02,WNW,286,3.0,14.0,62,0.00,,,0.00,meteohub,2013-11-24 03:56:00,
2013-11-23 22:57:00,34.9,23.2,30.02,NW,305,5.0,14.0,62,0.00,,,0.00,meteohub,2013-11-24 03:57:00,
2013-11-23 23:00:00,34.9,23.2,30.02,West,277,7.0,14.0,62,0.00,,,0.00,meteohub,2013-11-24 04:00:00,
2013-11-23 23:01:00,34.9,23.2,30.02,WNW,284,4.0,14.0,62,0.00,,,0.00,meteohub,2013-11-24 04:01:00,
2013-11-23 23:02:00,34.9,23.2,30.02,WNW,300,5.0,14.0,62,0.00,,,0.00,meteohub,2013-11-24 04:02:00,
2013-11-23 23:03:00,34.9,23.2,30.02,WNW,287,5.0,14.0,62,0.00,,,0.00,meteohub,2013-11-24 04:03:00,
2013-11-23 23:05:00,34.9,23.2,30.02,WNW,286,2.0,13.0,62,0.00,,,0.00,meteohub,2013-11-24 04:05:00,
2013-11-23 23:06:00,34.9,23.2,30.02,WNW,297,14.0,14.0,62,0.00,,,0.00,meteohub,2013-11-24 04:06:00,
2013-11-23 23:07:00,34.7,23.0,30.01,WNW,282,6.0,13.0,62,0.00,,,0.00,meteohub,2013-11-24 04:07:00,
2013-11-23 23:08:00,34.7,23.0,30.01,WNW,290,15.0,15.0,62,0.00,,,0.00,meteohub,2013-11-24 04:08:00,
2013-11-23 23:09:00,34.7,23.0,30.01,WNW,300,5.0,13.0,62,0.00,,,0.00,meteohub,2013-11-24 04:09:00,
2013-11-23 23:10:00,34.7,23.0,30.01,WNW,296,2.0,14.0,62,0.00,,,0.00,meteohub,2013-11-24 04:10:00,
2013-11-23 23:11:00,34.7,23.4,30.01,WNW,282,4.0,14.0,63,0.00,,,0.00,meteohub,2013-11-24 04:11:00,
2013-11-23 23:13:00,34.7,23.4,30.01,WNW,289,9.0,14.0,63,0.00,,,0.00,meteohub,2013-11-24 04:13:00,
2013-11-23 23:14:00,34.7,23.0,30.01,WNW,287,7.0,14.0,62,0.00,,,0.00,meteohub,2013-11-24 04:14:00,
2013-11-23 23:15:00,34.7,23.0,30.02,West,280,4.0,19.0,62,0.00,,,0.00,meteohub,2013-11-24 04:15:00,
2013-11-23 23:16:00,34.5,22.8,30.02,West,263,4.0,19.0,62,0.00,,,0.00,meteohub,2013-11-24 04:16:00,
2013-11-23 23:18:00,34.5,22.8,30.01,NW,307,8.0,19.0,62,0.00,,,0.00,meteohub,2013-11-24 04:18:00,
2013-11-23 23:19:00,34.5,22.8,30.01,WNW,286,14.0,19.0,62,0.00,,,0.00,meteohub,2013-11-24 04:19:00,
2013-11-23 23:21:00,34.5,22.8,30.01,WNW,296,10.0,19.0,62,0.00,,,0.00,meteohub,2013-11-24 04:21:00,
2013-11-23 23:23:00,34.5,22.8,30.01,WNW,301,10.0,19.0,62,0.00,,,0.00,meteohub,2013-11-24 04:23:00,
2013-11-23 23:24:00,34.5,22.8,30.01,WNW,297,9.0,19.0,62,0.00,,,0.00,meteohub,2013-11-24 04:24:00,
2013-11-23 23:25:00,34.5,23.2,30.01,WSW,254,2.0,19.0,63,0.00,,,0.00,meteohub,2013-11-24 04:25:00,
2013-11-23 23:26:00,34.5,23.2,30.01,WNW,289,9.0,19.0,63,0.00,,,0.00,meteohub,2013-11-24 04:26:00,
2013-11-23 23:27:00,34.5,23.2,30.01,WNW,285,7.0,19.0,63,0.00,,,0.00,meteohub,2013-11-24 04:27:00,
2013-11-23 23:28:00,34.3,23.0,30.01,WNW,302,9.0,19.0,63,0.00,,,0.00,meteohub,2013-11-24 04:28:00,
2013-11-23 23:29:00,34.3,23.0,30.01,West,261,7.0,19.0,63,0.00,,,0.00,meteohub,2013-11-24 04:29:00,
2013-11-23 23:30:00,34.3,23.4,30.01,West,275,7.0,19.0,64,0.00,,,0.00,meteohub,2013-11-24 04:30:00,
2013-11-23 23:31:00,34.3,23.4,30.01,WNW,284,8.0,15.0,64,0.00,,,0.00,meteohub,2013-11-24 04:31:00,
2013-11-23 23:32:00,34.3,23.4,30.01,WNW,302,8.0,15.0,64,0.00,,,0.00,meteohub,2013-11-24 04:32:00,
2013-11-23 23:34:00,34.3,23.4,30.01,WNW,290,3.0,15.0,64,0.00,,,0.00,meteohub,2013-11-24 04:34:00,
2013-11-23 23:36:00,34.3,23.4,30.01,West,280,3.0,15.0,64,0.00,,,0.00,meteohub,2013-11-24 04:36:00,
2013-11-23 23:37:00,34.3,23.7,30.01,West,281,4.0,15.0,65,0.00,,,0.00,meteohub,2013-11-24 04:37:00,
2013-11-23 23:39:00,34.2,23.5,30.02,NW,323,6.0,15.0,65,0.00,,,0.00,meteohub,2013-11-24 04:39:00,
2013-11-23 23:40:00,34.2,23.5,30.02,WNW,292,3.0,15.0,65,0.00,,,0.00,meteohub,2013-11-24 04:40:00,
2013-11-23 23:41:00,34.2,23.2,30.02,NNW,331,6.0,15.0,64,0.00,,,0.00,meteohub,2013-11-24 04:41:00,
2013-11-23 23:42:00,34.2,23.5,30.02,WNW,292,5.0,15.0,65,0.00,,,0.00,meteohub,2013-11-24 04:42:00,
2013-11-23 23:44:00,34.2,23.5,30.01,NW,322,9.0,15.0,65,0.00,,,0.00,meteohub,2013-11-24 04:44:00,
2013-11-23 23:45:00,34.0,23.5,30.02,West,281,3.0,14.0,65,0.00,,,0.00,meteohub,2013-11-24 04:45:00,
2013-11-23 23:46:00,34.0,23.5,30.01,West,277,6.0,14.0,65,0.00,,,0.00,meteohub,2013-11-24 04:46:00,
2013-11-23 23:48:00,34.0,23.5,30.02,WNW,295,5.0,14.0,65,0.00,,,0.00,meteohub,2013-11-24 04:48:00,
2013-11-23 23:50:00,34.0,23.5,30.02,NW,305,9.0,14.0,65,0.00,,,0.00,meteohub,2013-11-24 04:50:00,
2013-11-23 23:51:00,34.0,23.5,30.02,North,355,4.0,17.0,65,0.00,,,0.00,meteohub,2013-11-24 04:51:00,
2013-11-23 23:52:00,34.0,23.5,30.01,West,279,8.0,17.0,65,0.00,,,0.00,meteohub,2013-11-24 04:52:00,
2013-11-23 23:53:00,34.0,23.5,30.01,WNW,300,7.0,17.0,65,0.00,,,0.00,meteohub,2013-11-24 04:53:00,
2013-11-23 23:55:00,34.0,23.9,30.02,WNW,289,10.0,17.0,66,0.00,,,0.00,meteohub,2013-11-24 04:55:00,
2013-11-23 23:57:00,34.0,23.9,30.02,WNW,292,17.0,17.0,66,0.00,,,0.00,meteohub,2013-11-24 04:57:00,
2013-11-23 23:58:00,34.0,24.3,30.02,WSW,252,15.0,17.0,67,0.00,,,0.00,meteohub,2013-11-24 04:58:00,
2013-11-23 23:59:00,33.6,24.3,30.02,WNW,292,15.0,17.0,68,0.00,,,0.00,meteohub,2013-11-24 04:59:00,